Flight Track Log - Related Links

Times and Time Zones

All times are in EDT time to prevent confusion due to time zone crossing. See the EVA6079 flight status page for this flight to view local times or setup timezone preferences in your user account.


Time Position Orientation Groundspeed Altitude Reporting Facility
EDT Latitude Longitude Course Direction KTS MPH feet Rate Location/Type
Wed 08:20:58 PM 25.0620 121.2250 227° Southwest 181 208 600  Level FlightAware ADS-B
Wed 08:21:28 PM 25.0460 121.2040 230° Southwest 178 205 1,700 1,500 Climbing FlightAware ADS-B
Wed 08:21:58 PM 25.0280 121.1820 228° Southwest 213 245 2,100 1,636 Climbing FlightAware ADS-B
Wed 08:22:23 PM 25.0140 121.1590 236° Southwest 205 236 3,200 2,400 Climbing FlightAware ADS-B
Wed 08:22:38 PM 25.0120 121.1470 260° West 209 241 3,700 1,950 Climbing FlightAware ADS-B
Wed 08:23:03 PM 25.0220 121.1200 292° West 226 260 4,500 1,527 Climbing FlightAware ADS-B
Wed 08:23:33 PM 25.0400 121.0910 304° West 251 289 5,100 1,300 Climbing FlightAware ADS-B
Wed 08:24:03 PM 25.0620 121.0560 305° West 278 320 5,800 1,527 Climbing FlightAware ADS-B
Wed 08:24:28 PM 25.0810 121.0260 305° West 294 338 6,500 2,182 Climbing FlightAware ADS-B
Wed 08:24:58 PM 25.1040 120.9880 304° West 300 345 7,800 2,600 Climbing FlightAware ADS-B
Wed 08:25:28 PM 25.1180 120.9460 290° West 294 338 9,100 2,550 Climbing FlightAware ADS-B
Wed 08:25:38 PM 25.1160 120.9310 262° West 292 336 9,500 2,400 Climbing FlightAware ADS-B
Wed 08:25:53 PM 25.1060 120.9100 242° Southwest 294 338 10,100 1,745 Climbing FlightAware ADS-B
Wed 08:26:33 PM 25.0660 120.8670 224° Southwest 326 375 11,100 1,271 Climbing FlightAware ADS-B
Wed 08:27:18 PM 25.0130 120.8120 223° Southwest 372 428 11,900 1,553 Climbing FlightAware ADS-B
Wed 08:27:58 PM 24.9630 120.7580 224° Southwest 385 443 13,300 2,188 Climbing FlightAware ADS-B
Wed 08:28:43 PM 24.9030 120.6950 224° Southwest 393 452 15,000 2,118 Climbing FlightAware ADS-B
Wed 08:29:23 PM 24.8520 120.6400 224° Southwest 402 463 16,300 2,025 Climbing FlightAware ADS-B
Wed 08:30:03 PM 24.7970 120.5800 225° Southwest 409 471 17,700 1,976 Climbing FlightAware ADS-B
Wed 08:30:48 PM 24.7320 120.5130 223° Southwest 421 484 19,100 1,765 Climbing FlightAware ADS-B
Wed 08:31:28 PM 24.6720 120.4640 217° Southwest 430 495 20,200 1,425 Climbing FlightAware ADS-B
Wed 08:32:08 PM 24.6140 120.4090 221° Southwest 439 505 21,000 1,600 Climbing FlightAware ADS-B
Wed 08:32:43 PM 24.5630 120.3500 226° Southwest 436 502 22,200 1,553 Climbing FlightAware ADS-B
Wed 08:33:33 PM 24.5080 120.2870 226° Southwest 442 509 23,200 1,309 Climbing FlightAware ADS-B
Wed 08:34:33 PM 24.4160 120.1820 226° Southwest 454 522 24,600 1,440 Climbing FlightAware ADS-B
Wed 08:35:13 PM 24.3450 120.1000 226° Southwest 463 533 25,600 1,275 Climbing FlightAware ADS-B
Wed 08:35:53 PM 24.2940 120.0420 226° Southwest 468 539 26,300 1,059 Climbing FlightAware ADS-B
Wed 08:36:38 PM 24.2190 119.9570 226° Southwest 480 552 27,100 1,059 Climbing FlightAware ADS-B
Wed 08:37:18 PM 24.1530 119.8820 226° Southwest 488 562 27,800 918 Climbing FlightAware ADS-B
Wed 08:38:03 PM 24.0830 119.8030 226° Southwest 497 572 28,400 847 Climbing FlightAware ADS-B
Wed 08:38:43 PM 24.0200 119.7310 226° Southwest 503 579 29,000 1,050 Climbing FlightAware ADS-B
Wed 08:39:23 PM 23.9530 119.6560 226° Southwest 504 580 29,800 706 Climbing FlightAware ADS-B
Wed 08:40:08 PM 23.8850 119.5790 226° Southwest 509 586 30,000 141 Climbing FlightAware ADS-B
Wed 08:40:48 PM 23.8230 119.5110 225° Southwest 506 582 30,000  Level FlightAware ADS-B
Wed 08:41:23 PM 23.7590 119.4480 222° Southwest 502 578 30,000  Level FlightAware ADS-B
Wed 08:42:03 PM 23.6880 119.3820 220° Southwest 501 577 30,000  Level FlightAware ADS-B
Wed 08:42:53 PM 23.5920 119.2960 219° Southwest 501 577 30,000  Level FlightAware ADS-B
Wed 08:43:38 PM 23.5080 119.2220 219° Southwest 502 578 30,000  Level FlightAware ADS-B
Wed 08:44:13 PM 23.4520 119.1730 219° Southwest 501 577 30,000  Level FlightAware ADS-B
Wed 08:45:03 PM 23.3650 119.0970 219° Southwest 500 575 30,000  Level FlightAware ADS-B
Wed 08:45:43 PM 23.2930 119.0340 219° Southwest 506 582 30,000  Level FlightAware ADS-B
Wed 08:46:38 PM 23.1970 118.9490 219° Southwest 510 587 30,000  Level FlightAware ADS-B
Wed 08:47:23 PM 23.1100 118.8730 219° Southwest 512 589 30,000  Level FlightAware ADS-B
Wed 08:48:03 PM 23.0410 118.8120 219° Southwest 514 592 30,000  Level FlightAware ADS-B
Wed 08:48:43 PM 22.9540 118.7370 218° Southwest 512 589 30,000  Level FlightAware ADS-B
Wed 08:49:28 PM 22.8740 118.6660 219° Southwest 506 582 30,000  Level FlightAware ADS-B
Wed 08:50:08 PM 22.7960 118.5980 219° Southwest 505 581 30,000  Level FlightAware ADS-B
Wed 08:50:43 PM 22.7340 118.5440 219° Southwest 506 582 30,000  Level FlightAware ADS-B
Wed 08:51:28 PM 22.6680 118.4860 219° Southwest 509 586 30,000  Level FlightAware ADS-B
Wed 08:52:13 PM 22.5790 118.4090 219° Southwest 509 586 30,000  Level FlightAware ADS-B
Wed 08:52:58 PM 22.4940 118.3350 219° Southwest 509 586 30,000  Level FlightAware ADS-B
Wed 08:53:53 PM 22.3850 118.2400 219° Southwest 511 588 30,000  Level FlightAware ADS-B
Wed 08:54:33 PM 22.3110 118.1770 218° Southwest 511 588 30,000  Level FlightAware ADS-B
Wed 08:55:18 PM 22.2200 118.1100 214° Southwest 515 593 30,000  Level FlightAware ADS-B
Wed 08:55:58 PM 22.1370 118.0600 209° Southwest 515 593 30,000  Level FlightAware ADS-B
Wed 08:56:43 PM 22.0440 118.0070 208° Southwest 515 593 30,000  Level FlightAware ADS-B
Wed 08:57:23 PM 21.9610 117.9590 208° Southwest 514 592 30,000  Level FlightAware ADS-B
Wed 08:58:03 PM 21.8770 117.9100 208° Southwest 502 578 30,000  Level FlightAware ADS-B
Wed 08:58:48 PM 21.7940 117.8620 208° Southwest 500 575 30,000  Level FlightAware ADS-B
Wed 08:59:28 PM 21.7020 117.8090 208° Southwest 499 574 30,000  Level FlightAware ADS-B
Wed 09:00:13 PM 21.6130 117.7570 209° Southwest 499 574 30,000  Level FlightAware ADS-B
Wed 09:00:43 PM 21.5570 117.7250 208° Southwest 500 575 30,000  Level FlightAware ADS-B
Wed 09:01:33 PM 21.4730 117.6770 208° Southwest 500 575 30,000  Level FlightAware ADS-B
Wed 09:02:13 PM 21.4040 117.6370 208° Southwest 500 575 30,000  Level FlightAware ADS-B
Wed 09:02:53 PM 21.3340 117.5970 208° Southwest 500 575 30,000  Level FlightAware ADS-B
Wed 09:03:43 PM 21.2470 117.5480 208° Southwest 500 575 30,000  Level FlightAware ADS-B
Wed 09:04:23 PM 21.1780 117.5080 208° Southwest 500 575 30,000  Level FlightAware ADS-B
Wed 09:05:03 PM 21.1080 117.4690 207° Southwest 500 575 30,000  Level FlightAware ADS-B
Wed 09:05:43 PM 21.0390 117.4290 208° Southwest 500 575 30,000  Level FlightAware ADS-B
Wed 09:06:23 PM 20.9700 117.3900 208° Southwest 500 575 30,000  Level FlightAware ADS-B
Wed 09:07:13 PM 20.8830 117.3400 208° Southwest 500 575 30,000  Level FlightAware ADS-B
Wed 09:07:53 PM 20.8130 117.3010 208° Southwest 500 575 30,000  Level FlightAware ADS-B
Wed 09:08:33 PM 20.7440 117.2610 208° Southwest 500 575 30,000  Level FlightAware ADS-B
Wed 09:09:13 PM 20.6740 117.2220 208° Southwest 500 575 30,000  Level FlightAware ADS-B
Wed 09:09:53 PM 20.6050 117.1820 208° Southwest 500 575 30,000  Level FlightAware ADS-B
Wed 09:10:43 PM 20.5180 117.1330 208° Southwest 500 575 30,000 403 Level FlightAware ADS-B
Wed 09:13:00 PM 20.6750 117.0035 322° Northwest  Level Estimated
Wed 09:14:00 PM 20.7437 116.9468 322° Northwest  Level Estimated
Wed 09:15:00 PM 20.8124 116.8899 322° Northwest  Level Estimated
Wed 09:16:00 PM 20.8811 116.8331 322° Northwest  Level Estimated
Wed 09:17:00 PM 20.9497 116.7761 322° Northwest  Level Estimated
Wed 09:18:00 PM 21.0184 116.7191 322° Northwest  Level Estimated
Wed 09:19:00 PM 21.0870 116.6621 322° Northwest  Level Estimated
Wed 09:19:48 PM 21.1250 115.1440 322° Northwest 502 578 34,000  Level FlightAware ADS-B
Wed 09:20:23 PM 21.1230 115.0510 269° West 502 578 34,000  Level FlightAware ADS-B
Wed 09:21:13 PM 21.1190 114.9450 268° West 502 578 34,000  Level FlightAware ADS-B
Wed 09:21:53 PM 21.1160 114.8610 268° West 502 578 34,000  Level FlightAware ADS-B
Wed 09:22:33 PM 21.1140 114.7760 269° West 502 578 34,000  Level FlightAware ADS-B
Wed 09:23:13 PM 21.1110 114.6920 268° West 502 578 34,000  Level FlightAware ADS-B
Wed 09:23:53 PM 21.1080 114.6070 268° West 502 578 34,000  Level FlightAware ADS-B
Wed 09:24:43 PM 21.1050 114.5010 268° West 502 578 34,000  Level FlightAware ADS-B
Wed 09:26:08 PM 21.0990 114.1890 269° West 505 581 34,000  Level FlightAware ADS-B
Wed 09:26:48 PM 21.0960 114.1030 268° West 505 581 34,000  Level FlightAware ADS-B
Wed 09:27:28 PM 21.0790 113.9860 261° West 506 582 34,000  Level FlightAware ADS-B
Wed 09:28:08 PM 21.0710 113.9020 264° West 506 582 34,000  Level FlightAware ADS-B
Wed 09:28:48 PM 21.0630 113.8170 264° West 506 582 34,000  Level FlightAware ADS-B
Wed 09:29:38 PM 21.0520 113.7110 264° West 506 582 34,000  Level FlightAware ADS-B
Wed 09:30:18 PM 21.0440 113.6260 264° West 506 582 34,000  Level FlightAware ADS-B
Wed 09:30:58 PM 21.0360 113.5410 264° West 506 582 34,000  Level FlightAware ADS-B
Wed 09:31:38 PM 21.0270 113.4560 264° West 506 582 34,000  Level FlightAware ADS-B
Wed 09:32:18 PM 21.0190 113.3710 264° West 506 582 34,000  Level FlightAware ADS-B
Wed 09:32:58 PM 21.0110 113.2870 264° West 506 582 34,000  Level FlightAware ADS-B
Wed 09:33:48 PM 21.0000 113.1810 264° West 506 582 34,000  Level FlightAware ADS-B
Wed 09:34:28 PM 20.9920 113.0960 264° West 506 582 34,000  Level FlightAware ADS-B
Wed 09:35:08 PM 20.9840 113.0110 264° West 506 582 34,000  Level FlightAware ADS-B
Wed 09:35:48 PM 20.9750 112.9260 264° West 506 582 34,000  Level FlightAware ADS-B
Wed 09:36:28 PM 20.9670 112.8420 264° West 506 582 34,000  Level FlightAware ADS-B
Wed 09:39:00 PM 21.1382 112.6940 321° Northwest  Level Estimated
Wed 09:40:00 PM 21.2058 112.6354 321° Northwest  Level Estimated
Wed 09:41:00 PM 21.2733 112.5769 321° Northwest  Level Estimated
Wed 09:42:00 PM 21.3409 112.5182 321° Northwest  Level Estimated
Wed 09:43:00 PM 21.4084 112.4595 321° Northwest  Level Estimated
Wed 09:44:00 PM 21.4758 112.4008 321° Northwest  Level Estimated
Wed 09:45:00 PM 21.5433 112.3420 321° Northwest  Level Estimated
Wed 09:46:00 PM 21.6107 112.2831 321° Northwest  Level Estimated
Wed 09:47:00 PM 21.6782 112.2242 321° Northwest  Level Estimated
Wed 09:48:00 PM 21.7456 112.1653 321° Northwest  Level Estimated
Wed 09:49:00 PM 21.8129 112.1062 321° Northwest  Level Estimated
Wed 09:50:00 PM 21.8803 112.0472 321° Northwest  Level Estimated
Wed 09:51:00 PM 21.9476 111.9881 321° Northwest  Level Estimated
Wed 09:52:00 PM 22.0149 111.9289 321° Northwest  Level Estimated
Wed 09:53:00 PM 22.0822 111.8696 321° Northwest  Level Estimated
Wed 09:54:00 PM 22.1495 111.8103 321° Northwest  Level Estimated
Wed 09:55:00 PM 22.2167 111.7510 321° Northwest  Level Estimated
Wed 09:56:00 PM 22.2840 111.6916 321° Northwest  Level Estimated
Wed 09:57:00 PM 22.3512 111.6321 321° Northwest  Level Estimated
Wed 09:58:00 PM 22.4183 111.5726 321° Northwest  Level Estimated
Wed 09:59:00 PM 22.4855 111.5130 321° Northwest  Level Estimated
Wed 10:00:00 PM 22.5526 111.4533 321° Northwest  Level Estimated
Wed 10:01:00 PM 22.6198 111.3936 321° Northwest  Level Estimated
Wed 10:02:00 PM 22.6868 111.3339 321° Northwest  Level Estimated
Wed 10:03:00 PM 22.7539 111.2741 321° Northwest  Level Estimated
Wed 10:04:00 PM 22.8210 111.2142 321° Northwest  Level Estimated
Wed 10:05:00 PM 22.8880 111.1543 321° Northwest  Level Estimated
Wed 10:06:00 PM 22.9550 111.0943 321° Northwest  Level Estimated
Wed 10:07:00 PM 23.0220 111.0342 320° Northwest  Level Estimated
Wed 10:08:00 PM 23.0889 110.9741 320° Northwest  Level Estimated
Wed 10:09:00 PM 23.1559 110.9139 320° Northwest  Level Estimated
Wed 10:10:00 PM 23.2228 110.8537 320° Northwest  Level Estimated
Wed 10:11:00 PM 23.2897 110.7934 320° Northwest  Level Estimated
Wed 10:12:00 PM 23.3566 110.7331 320° Northwest  Level Estimated
Wed 10:13:00 PM 23.4234 110.6727 320° Northwest  Level Estimated
Wed 10:14:00 PM 23.4902 110.6122 320° Northwest  Level Estimated
Wed 10:15:00 PM 23.5570 110.5516 320° Northwest  Level Estimated
Wed 10:16:00 PM 23.6238 110.4910 320° Northwest  Level Estimated
Wed 10:17:00 PM 23.6906 110.4304 320° Northwest  Level Estimated
Wed 10:18:00 PM 23.7573 110.3697 320° Northwest  Level Estimated
Wed 10:19:00 PM 23.8240 110.3089 320° Northwest  Level Estimated
Wed 10:20:00 PM 23.8907 110.2480 320° Northwest  Level Estimated
Wed 10:21:00 PM 23.9573 110.1871 320° Northwest  Level Estimated
Wed 10:22:00 PM 24.0240 110.1261 320° Northwest  Level Estimated
Wed 10:23:00 PM 24.0906 110.0651 320° Northwest  Level Estimated
Wed 10:24:00 PM 24.1572 110.0040 320° Northwest  Level Estimated
Wed 10:25:00 PM 24.2237 109.9428 320° Northwest  Level Estimated
Wed 10:26:00 PM 24.2903 109.8816 320° Northwest  Level Estimated
Wed 10:27:00 PM 24.3568 109.8203 320° Northwest  Level Estimated
Wed 10:28:00 PM 24.4233 109.7590 320° Northwest  Level Estimated
Wed 10:29:00 PM 24.4897 109.6975 320° Northwest  Level Estimated
Wed 10:30:00 PM 24.5562 109.6360 320° Northwest  Level Estimated
Wed 10:31:00 PM 24.6226 109.5745 320° Northwest  Level Estimated
Wed 10:32:00 PM 24.6889 109.5129 320° Northwest  Level Estimated
Wed 10:33:00 PM 24.7553 109.4512 320° Northwest  Level Estimated
Wed 10:34:00 PM 24.8216 109.3895 320° Northwest  Level Estimated
Wed 10:35:00 PM 24.8880 109.3276 320° Northwest  Level Estimated
Wed 10:36:00 PM 24.9543 109.2658 320° Northwest  Level Estimated
Wed 10:37:00 PM 25.0205 109.2038 320° Northwest  Level Estimated
Wed 10:38:00 PM 25.0867 109.1418 320° Northwest  Level Estimated
Wed 10:39:00 PM 25.1530 109.0797 320° Northwest  Level Estimated
Wed 10:40:00 PM 25.2191 109.0176 320° Northwest  Level Estimated
Wed 10:41:00 PM 25.2853 108.9554 320° Northwest  Level Estimated
Wed 10:42:00 PM 25.3514 108.8931 320° Northwest  Level Estimated
Wed 10:43:00 PM 25.4175 108.8307 320° Northwest  Level Estimated
Wed 10:44:00 PM 25.4836 108.7683 320° Northwest  Level Estimated
Wed 10:45:00 PM 25.5497 108.7058 320° Northwest  Level Estimated
Wed 10:46:00 PM 25.6157 108.6432 319° Northwest  Level Estimated
Wed 10:47:00 PM 25.6817 108.5806 319° Northwest  Level Estimated
Wed 10:48:00 PM 25.7476 108.5179 319° Northwest  Level Estimated
Wed 10:49:00 PM 25.8136 108.4551 319° Northwest  Level Estimated
Wed 10:50:00 PM 25.8795 108.3923 319° Northwest  Level Estimated
Wed 10:51:00 PM 25.9454 108.3294 319° Northwest  Level Estimated
Wed 10:52:00 PM 26.0112 108.2664 319° Northwest  Level Estimated
Wed 10:53:00 PM 26.0771 108.2034 319° Northwest  Level Estimated
Wed 10:54:00 PM 26.1429 108.1403 319° Northwest  Level Estimated
Wed 10:55:00 PM 26.2087 108.0771 319° Northwest  Level Estimated
Wed 10:56:00 PM 26.2744 108.0138 319° Northwest  Level Estimated
Wed 10:57:00 PM 26.3402 107.9505 319° Northwest  Level Estimated
Wed 10:58:00 PM 26.4059 107.8871 319° Northwest  Level Estimated
Wed 10:59:00 PM 26.4715 107.8236 319° Northwest  Level Estimated
Wed 11:00:00 PM 26.5372 107.7600 319° Northwest  Level Estimated
Wed 11:01:00 PM 26.6028 107.6964 319° Northwest  Level Estimated
Wed 11:02:00 PM 26.6684 107.6327 319° Northwest  Level Estimated
Wed 11:03:00 PM 26.7339 107.5690 319° Northwest  Level Estimated
Wed 11:04:00 PM 26.7994 107.5051 319° Northwest  Level Estimated
Wed 11:05:00 PM 26.8650 107.4412 319° Northwest  Level Estimated
Wed 11:06:00 PM 26.9304 107.3772 319° Northwest  Level Estimated
Wed 11:07:00 PM 26.9959 107.3131 319° Northwest  Level Estimated
Wed 11:08:00 PM 27.0613 107.2490 319° Northwest  Level Estimated
Wed 11:09:00 PM 27.1266 107.1848 319° Northwest  Level Estimated
Wed 11:10:00 PM 27.1920 107.1205 319° Northwest  Level Estimated
Wed 11:11:00 PM 27.2573 107.0562 319° Northwest  Level Estimated
Wed 11:12:00 PM 27.3226 106.9917 319° Northwest  Level Estimated
Wed 11:13:00 PM 27.3879 106.9272 319° Northwest  Level Estimated
Wed 11:14:00 PM 27.4531 106.8626 319° Northwest  Level Estimated
Wed 11:15:00 PM 27.5183 106.7979 319° Northwest  Level Estimated
Wed 11:16:00 PM 27.5835 106.7332 319° Northwest  Level Estimated
Wed 11:17:00 PM 27.6487 106.6684 319° Northwest  Level Estimated
Wed 11:18:00 PM 27.7138 106.6035 319° Northwest  Level Estimated
Wed 11:19:00 PM 27.7789 106.5385 319° Northwest  Level Estimated
Wed 11:20:00 PM 27.8439 106.4734 319° Northwest  Level Estimated
Wed 11:21:00 PM 27.9090 106.4083 318° Northwest  Level Estimated
Wed 11:22:00 PM 27.9739 106.3431 318° Northwest  Level Estimated
Wed 11:23:00 PM 28.0389 106.2778 318° Northwest  Level Estimated
Wed 11:24:00 PM 28.1038 106.2124 318° Northwest  Level Estimated
Wed 11:25:00 PM 28.1687 106.1470 318° Northwest  Level Estimated
Wed 11:26:00 PM 28.2336 106.0815 318° Northwest  Level Estimated
Wed 11:27:00 PM 28.2985 106.0158 318° Northwest  Level Estimated
Wed 11:28:00 PM 28.3633 105.9502 318° Northwest  Level Estimated
Wed 11:29:00 PM 28.4280 105.8844 318° Northwest  Level Estimated
Wed 11:30:00 PM 28.4928 105.8185 318° Northwest  Level Estimated
Wed 11:31:00 PM 28.5575 105.7526 318° Northwest  Level Estimated
Wed 11:32:00 PM 28.6222 105.6866 318° Northwest  Level Estimated
Wed 11:33:00 PM 28.6868 105.6205 318° Northwest  Level Estimated
Wed 11:34:00 PM 28.7514 105.5543 318° Northwest  Level Estimated
Wed 11:35:00 PM 28.8160 105.4881 318° Northwest  Level Estimated
Wed 11:36:00 PM 28.8806 105.4218 318° Northwest  Level Estimated
Wed 11:37:00 PM 28.9451 105.3553 318° Northwest  Level Estimated
Wed 11:38:00 PM 29.0096 105.2888 318° Northwest  Level Estimated
Wed 11:39:00 PM 29.0740 105.2223 318° Northwest  Level Estimated
Wed 11:40:00 PM 29.1385 105.1556 318° Northwest  Level Estimated
Wed 11:41:00 PM 29.2028 105.0888 318° Northwest  Level Estimated
Wed 11:42:00 PM 29.2672 105.0220 318° Northwest  Level Estimated
Wed 11:43:00 PM 29.3315 104.9551 318° Northwest  Level Estimated
Wed 11:44:00 PM 29.3958 104.8881 318° Northwest  Level Estimated
Wed 11:45:00 PM 29.4601 104.8210 318° Northwest  Level Estimated
Wed 11:46:00 PM 29.5243 104.7538 318° Northwest  Level Estimated
Wed 11:47:00 PM 29.5885 104.6865 318° Northwest  Level Estimated
Wed 11:48:00 PM 29.6526 104.6192 318° Northwest  Level Estimated
Wed 11:49:00 PM 29.7167 104.5518 318° Northwest  Level Estimated
Wed 11:50:00 PM 29.7808 104.4843 318° Northwest  Level Estimated
Wed 11:51:00 PM 29.8449 104.4167 318° Northwest  Level Estimated
Wed 11:52:00 PM 29.9089 104.3490 318° Northwest  Level Estimated
Wed 11:53:00 PM 29.9729 104.2812 317° Northwest  Level Estimated
Wed 11:54:00 PM 30.0368 104.2133 317° Northwest  Level Estimated
Wed 11:55:00 PM 30.1007 104.1454 317° Northwest  Level Estimated
Wed 11:56:00 PM 30.1646 104.0773 317° Northwest  Level Estimated
Wed 11:57:00 PM 30.2284 104.0092 317° Northwest  Level Estimated
Wed 11:58:00 PM 30.2922 103.9410 317° Northwest  Level Estimated
Wed 11:59:00 PM 30.3560 103.8727 317° Northwest  Level Estimated
Wed 11:59:53 PM 23.4480 93.5160 317° Northwest 485 558 34,000  Level FlightAware ADS-B
Thu 12:00:00 AM 30.4198 103.8043 317° Northwest  Level Estimated
Thu 12:00:28 AM 23.4530 93.4410 274° West 486 559 34,000  Level FlightAware ADS-B
Thu 12:01:18 AM 23.4600 93.3370 274° West 486 559 34,000  Level FlightAware ADS-B
Thu 12:02:03 AM 23.5010 93.2140 290° West 487 560 34,000  Level FlightAware ADS-B
Thu 12:02:53 AM 23.5210 93.1110 282° West 487 560 34,000  Level FlightAware ADS-B
Thu 12:03:33 AM 23.5470 92.9920 283° West 475 547 34,000  Level FlightAware ADS-B
Thu 12:04:13 AM 23.5630 92.9090 282° West 475 547 34,000  Level FlightAware ADS-B
Thu 12:04:53 AM 23.5850 92.8050 283° West 478 550 34,000  Level FlightAware ADS-B
Thu 12:05:38 AM 23.6050 92.7010 282° West 482 555 34,000  Level FlightAware ADS-B
Thu 12:06:23 AM 23.6270 92.5930 283° West 493 567 34,000  Level FlightAware ADS-B
Thu 12:07:03 AM 23.6470 92.4920 282° West 496 571 34,000  Level FlightAware ADS-B
Thu 12:07:48 AM 23.6680 92.3840 282° West 496 571 34,000  Level FlightAware ADS-B
Thu 12:08:28 AM 23.6870 92.2880 282° West 494 568 34,000  Level FlightAware ADS-B
Thu 12:09:08 AM 23.7060 92.1900 282° West 494 568 34,000  Level FlightAware ADS-B
Thu 12:09:53 AM 23.7290 92.0770 283° West 494 568 34,000  Level FlightAware ADS-B
Thu 12:10:33 AM 23.7470 91.9810 282° West 497 572 34,000  Level FlightAware ADS-B
Thu 12:11:18 AM 23.7680 91.8730 282° West 501 577 34,000  Level FlightAware ADS-B
Thu 12:12:03 AM 23.7900 91.7620 282° West 498 573 34,000  Level FlightAware ADS-B
Thu 12:12:43 AM 23.8100 91.6590 282° West 499 574 34,000  Level FlightAware ADS-B
Thu 12:13:23 AM 23.8280 91.5610 281° West 501 577 34,000  Level FlightAware ADS-B
Thu 12:14:08 AM 23.8490 91.4500 282° West 507 583 34,000  Level FlightAware ADS-B
Thu 12:14:48 AM 23.8690 91.3500 282° West 514 592 34,000  Level FlightAware ADS-B
Thu 12:15:28 AM 23.8870 91.2460 281° West 522 601 34,000  Level FlightAware ADS-B
Thu 12:16:13 AM 23.8780 91.1260 265° West 520 598 34,000  Level FlightAware ADS-B
Thu 12:16:53 AM 23.8630 91.0240 261° West 512 589 34,000  Level FlightAware ADS-B
Thu 12:17:38 AM 23.8490 90.9110 262° West 512 589 34,000  Level FlightAware ADS-B
Thu 12:18:18 AM 23.8650 90.8100 280° West 521 600 34,000  Level FlightAware ADS-B
Thu 12:18:58 AM 23.8920 90.7100 286° West 521 600 34,000  Level FlightAware ADS-B
Thu 12:19:43 AM 23.9230 90.5930 286° West 517 595 34,000  Level FlightAware ADS-B
Thu 12:20:23 AM 23.9490 90.4920 286° West 520 598 34,000  Level FlightAware ADS-B
Thu 12:21:08 AM 23.9790 90.3830 287° West 522 601 34,000  Level FlightAware ADS-B
Thu 12:21:48 AM 24.0060 90.2800 286° West 521 600 34,000  Level FlightAware ADS-B
Thu 12:22:28 AM 24.0330 90.1790 286° West 522 601 34,000  Level FlightAware ADS-B
Thu 12:23:13 AM 24.0650 90.0630 287° West 524 603 34,000  Level FlightAware ADS-B
Thu 12:23:53 AM 24.0950 89.9610 288° West 523 602 34,000  Level FlightAware ADS-B
Thu 12:24:38 AM 24.1260 89.8520 287° West 519 597 34,000  Level FlightAware ADS-B
Thu 12:25:18 AM 24.1530 89.7580 287° West 519 597 34,000  Level FlightAware ADS-B
Thu 12:25:58 AM 24.1810 89.6520 286° West 514 592 34,000  Level FlightAware ADS-B
Thu 12:26:43 AM 24.2120 89.5350 286° West 510 587 34,000  Level FlightAware ADS-B
Thu 12:27:23 AM 24.2370 89.4370 286° West 508 585 34,000  Level FlightAware ADS-B
Thu 12:28:08 AM 24.2630 89.3280 285° West 506 582 34,000  Level FlightAware ADS-B
Thu 12:28:38 AM 24.2810 89.2570 286° West 505 581 34,000  Level FlightAware ADS-B
Thu 12:29:23 AM 24.3050 89.1580 285° West 505 581 34,000  Level FlightAware ADS-B
Thu 12:30:13 AM 24.3310 89.0530 285° West 505 581 34,000  Level FlightAware ADS-B
Thu 12:30:53 AM 24.3510 88.9690 285° West 505 581 34,000  Level FlightAware ADS-B
Thu 12:31:33 AM 24.3720 88.8850 285° West 505 581 34,000  Level FlightAware ADS-B
Thu 12:32:13 AM 24.3920 88.8000 285° West 505 581 34,000  Level FlightAware ADS-B
Thu 12:32:53 AM 24.4130 88.7160 285° West 505 581 34,000  Level FlightAware ADS-B
Thu 12:33:43 AM 24.4390 88.6110 285° West 505 581 34,000  Level FlightAware ADS-B
Thu 12:34:23 AM 24.4590 88.5270 285° West 505 581 34,000  Level FlightAware ADS-B
Thu 12:35:03 AM 24.4800 88.4420 285° West 505 581 34,000  Level FlightAware ADS-B
Thu 12:35:43 AM 24.5000 88.3580 285° West 505 581 34,000  Level FlightAware ADS-B
Thu 12:36:23 AM 24.5210 88.2740 285° West 505 581 34,000  Level FlightAware ADS-B
Thu 12:37:13 AM 24.5470 88.1680 285° West 505 581 34,000  Level FlightAware ADS-B
Thu 12:37:53 AM 24.5670 88.0840 285° West 505 581 34,000  Level FlightAware ADS-B
Thu 12:38:33 AM 24.5880 87.9990 285° West 505 581 34,000 -60 Level FlightAware ADS-B
Thu 12:41:00 AM 24.7403 87.8355 316° Northwest  Level Estimated
Thu 12:42:00 AM 24.8024 87.7686 316° Northwest  Level Estimated
Thu 12:43:00 AM 24.8645 87.7017 316° Northwest  Level Estimated
Thu 12:44:00 AM 24.9265 87.6347 316° Northwest  Level Estimated
Thu 12:45:00 AM 24.9885 87.5676 316° Northwest  Level Estimated
Thu 12:46:00 AM 25.0505 87.5005 316° Northwest  Level Estimated
Thu 12:47:00 AM 25.1125 87.4333 316° Northwest  Level Estimated
Thu 12:48:00 AM 25.1744 87.3660 315° West  Level Estimated
Thu 12:49:00 AM 25.2363 87.2987 315° West  Level Estimated
Thu 12:50:00 AM 25.2982 87.2312 315° West  Level Estimated
Thu 12:51:00 AM 25.3600 87.1638 315° West  Level Estimated
Thu 12:52:00 AM 25.4218 87.0962 315° West  Level Estimated
Thu 12:53:00 AM 25.4836 87.0286 315° West  Level Estimated
Thu 12:54:00 AM 25.5453 86.9609 315° West  Level Estimated
Thu 12:55:00 AM 25.6070 86.8932 315° West  Level Estimated
Thu 12:56:00 AM 25.6687 86.8254 315° West  Level Estimated
Thu 12:57:00 AM 25.7303 86.7575 315° West  Level Estimated
Thu 12:58:00 AM 25.7920 86.6895 315° West  Level Estimated
Thu 12:59:00 AM 25.8535 86.6215 315° West  Level Estimated
Thu 01:00:00 AM 25.9151 86.5534 315° West  Level Estimated
Thu 01:01:00 AM 25.9766 86.4852 315° West  Level Estimated
Thu 01:02:00 AM 26.0381 86.4169 315° West  Level Estimated
Thu 01:03:00 AM 26.0996 86.3486 315° West  Level Estimated
Thu 01:04:00 AM 26.1610 86.2802 315° West  Level Estimated
Thu 01:05:00 AM 26.2224 86.2118 315° West  Level Estimated
Thu 01:06:00 AM 26.2837 86.1432 315° West  Level Estimated
Thu 01:07:00 AM 26.3451 86.0746 315° West  Level Estimated
Thu 01:08:00 AM 26.4063 86.0060 315° West  Level Estimated
Thu 01:09:00 AM 26.4676 85.9372 315° West  Level Estimated
Thu 01:10:00 AM 26.5288 85.8684 315° West  Level Estimated
Thu 01:11:00 AM 26.5900 85.7995 315° West  Level Estimated
Thu 01:12:00 AM 26.6512 85.7305 315° West  Level Estimated
Thu 01:13:00 AM 26.7123 85.6615 315° West  Level Estimated
Thu 01:14:00 AM 26.7734 85.5923 315° West  Level Estimated
Thu 01:15:00 AM 26.8345 85.5231 315° West  Level Estimated
Thu 01:16:00 AM 26.8955 85.4539 315° West  Level Estimated
Thu 01:17:00 AM 26.9565 85.3845 315° West  Level Estimated
Thu 01:18:00 AM 27.0175 85.3151 315° West  Level Estimated
Thu 01:19:00 AM 27.0784 85.2456 315° West  Level Estimated
Thu 01:20:00 AM 27.1393 85.1760 315° West  Level Estimated
Thu 01:21:00 AM 27.2001 85.1064 315° West  Level Estimated
Thu 01:22:00 AM 27.2610 85.0367 314° West  Level Estimated
Thu 01:23:00 AM 27.3217 84.9669 314° West  Level Estimated
Thu 01:24:00 AM 27.3825 84.8970 314° West  Level Estimated
Thu 01:25:00 AM 27.4432 84.8270 314° West  Level Estimated
Thu 01:26:00 AM 27.5039 84.7570 314° West  Level Estimated
Thu 01:27:00 AM 27.5645 84.6869 314° West  Level Estimated
Thu 01:28:00 AM 27.6252 84.6167 314° West  Level Estimated
Thu 01:29:00 AM 27.6857 84.5464 314° West  Level Estimated
Thu 01:30:00 AM 27.7463 84.4761 314° West  Level Estimated
Thu 01:31:00 AM 27.8068 84.4057 314° West  Level Estimated
Thu 01:32:00 AM 27.8673 84.3352 314° West  Level Estimated
Thu 01:33:00 AM 27.9277 84.2646 314° West  Level Estimated
Thu 01:34:00 AM 27.9881 84.1939 314° West  Level Estimated
Thu 01:35:00 AM 28.0485 84.1232 314° West  Level Estimated
Thu 01:36:00 AM 28.1088 84.0524 314° West  Level Estimated
Thu 01:37:00 AM 28.1691 83.9815 314° West  Level Estimated
Thu 01:38:00 AM 28.2293 83.9105 314° West  Level Estimated
Thu 01:39:00 AM 28.2895 83.8395 314° West  Level Estimated
Thu 01:40:00 AM 28.3497 83.7683 314° West  Level Estimated
Thu 01:41:00 AM 28.4099 83.6971 314° West  Level Estimated
Thu 01:42:00 AM 28.4700 83.6258 314° West  Level Estimated
Thu 01:43:00 AM 28.5300 83.5545 314° West  Level Estimated
Thu 01:44:00 AM 28.5901 83.4830 314° West  Level Estimated
Thu 01:44:13 AM 27.8430 79.2490 314° West 439 505 30,000  Level FlightAware ADS-B
Thu 01:44:48 AM 27.8680 79.1790 292° West 439 505 30,000  Level FlightAware ADS-B
Thu 01:45:33 AM 27.9050 79.0800 293° West 434 499 30,000 -494 Level FlightAware ADS-B
Thu 01:46:13 AM 27.9340 79.0000 292° West 401 461 29,300 -1,553 Descending FlightAware ADS-B
Thu 01:46:58 AM 27.9650 78.9150 292° West 394 453 27,800 -1,800 Descending FlightAware ADS-B
Thu 01:47:43 AM 27.9960 78.8280 292° West 379 436 26,600 -1,271 Descending FlightAware ADS-B
Thu 01:48:23 AM 28.0210 78.7590 292° West 354 407 26,000 -450 Descending FlightAware ADS-B
Thu 01:49:03 AM 28.0560 78.7000 304° West 335 386 26,000  Level FlightAware ADS-B
Thu 01:49:48 AM 28.1120 78.6530 323° Northwest 334 384 26,000  Level FlightAware ADS-B
Thu 01:50:28 AM 28.1620 78.6120 324° Northwest 335 386 26,000  Level FlightAware ADS-B
Thu 01:51:13 AM 28.2200 78.5640 324° Northwest 336 387 26,000  Level FlightAware ADS-B
Thu 01:51:53 AM 28.2690 78.5250 325° Northwest 338 389 26,000  Level FlightAware ADS-B
Thu 01:52:33 AM 28.3210 78.4820 324° Northwest 334 384 26,000 -525 Level FlightAware ADS-B
Thu 01:53:13 AM 28.3710 78.4420 325° Northwest 338 389 25,300 -1,341 Descending FlightAware ADS-B
Thu 01:53:58 AM 28.4270 78.3960 324° Northwest 332 382 24,100 -1,800 Descending FlightAware ADS-B
Thu 01:54:43 AM 28.4850 78.3470 323° Northwest 329 379 22,600 -1,482 Descending FlightAware ADS-B
Thu 01:55:23 AM 28.5320 78.3080 324° Northwest 328 377 22,000 -514 Descending FlightAware ADS-B
Thu 01:55:53 AM 28.5650 78.2720 316° Northwest 318 366 22,000 -764 Level FlightAware ADS-B
Thu 01:56:18 AM 28.5760 78.2350 289° West 314 361 21,300 -1,745 Descending FlightAware ADS-B
Thu 01:56:48 AM 28.5690 78.1870 261° West 321 369 20,400 -1,629 Descending FlightAware ADS-B
Thu 01:57:28 AM 28.5460 78.1230 248° West 310 357 19,400 -1,350 Descending FlightAware ADS-B
Thu 01:58:08 AM 28.5240 78.0650 247° West 290 334 18,600 -1,341 Descending FlightAware ADS-B
Thu 01:58:53 AM 28.5020 78.0030 248° West 281 323 17,500 -1,482 Descending FlightAware ADS-B
Thu 01:59:33 AM 28.4820 77.9490 247° West 274 315 16,500 -1,271 Descending FlightAware ADS-B
Thu 02:00:18 AM 28.4600 77.8890 247° West 266 306 15,700 -1,341 Descending FlightAware ADS-B
Thu 02:00:58 AM 28.4410 77.8380 247° West 267 307 14,600 -1,500 Descending FlightAware ADS-B
Thu 02:01:38 AM 28.4230 77.7870 248° West 259 298 13,700 -1,129 Descending FlightAware ADS-B
Thu 02:02:23 AM 28.4020 77.7320 247° West 258 297 13,000 -700 Descending FlightAware ADS-B
Thu 02:02:38 AM 28.3970 77.7110 255° West 253 291 13,000  Level FlightAware ADS-B
Thu 02:03:03 AM 28.4030 77.6810 283° West 255 293 13,000  Level FlightAware ADS-B
Thu 02:03:48 AM 28.4330 77.6300 304° West 258 297 13,000  Level FlightAware ADS-B
Thu 02:04:03 AM 28.4480 77.6220 335° Northwest 266 306 13,000 -218 Level FlightAware ADS-B
Thu 02:04:43 AM 28.4970 77.6340 12° North 299 344 12,800 -545 Descending FlightAware ADS-B
Thu 02:04:58 AM 28.5100 77.6550 55° Northeast 305 351 12,500 -800 Descending FlightAware ADS-B
Thu 02:05:13 AM 28.5150 77.6770 75° East 309 356 12,400 -720 Descending FlightAware ADS-B
Thu 02:05:23 AM 28.5140 77.6920 94° East 310 357 12,200 -960 Descending FlightAware ADS-B
Thu 02:05:38 AM 28.5040 77.7170 114° Southeast 311 358 12,000 -800 Descending FlightAware ADS-B
Thu 02:06:23 AM 28.4740 77.7780 119° Southeast 310 357 11,400 -771 Descending FlightAware ADS-B
Thu 02:06:48 AM 28.4450 77.8050 141° Southeast 294 338 11,100 -600 Descending FlightAware ADS-B
Thu 02:07:03 AM 28.4260 77.8090 170° South 283 326 11,000 -133 Descending FlightAware ADS-B
Thu 02:07:33 AM 28.3930 77.7940 202° Southwest 263 303 11,000 -109 Level FlightAware ADS-B
Thu 02:07:58 AM 28.3770 77.7650 238° Southwest 248 285 10,900 -300 Descending FlightAware ADS-B
Thu 02:08:13 AM 28.3750 77.7490 262° West 245 282 10,800 -667 Descending FlightAware ADS-B
Thu 02:08:43 AM 28.3660 77.7100 255° West 255 293 10,400 -667 Descending FlightAware ADS-B
Thu 02:08:58 AM 28.3520 77.6970 219° Southwest 259 298 10,300 -436 Descending FlightAware ADS-B
Thu 02:09:38 AM 28.3120 77.6670 213° Southwest 256 295 10,000 -857 Descending FlightAware ADS-B
Thu 02:10:08 AM 28.2840 77.6440 216° Southwest 252 290 9,300 -1,500 Descending FlightAware ADS-B
Thu 02:10:18 AM 28.2750 77.6340 224° Southwest 244 281 9,000 -1,440 Descending FlightAware ADS-B
Thu 02:10:33 AM 28.2690 77.6180 247° West 234 269 8,700 -1,400 Descending FlightAware ADS-B
Thu 02:10:48 AM 28.2720 77.6000 281° West 231 266 8,300 -1,440 Descending FlightAware ADS-B
Thu 02:10:58 AM 28.2790 77.5900 308° West 236 272 8,100 -600 Descending FlightAware ADS-B
Thu 02:11:18 AM 28.3000 77.5810 339° North 254 292 8,000 -133 Descending FlightAware ADS-B
Thu 02:11:43 AM 28.3280 77.5840 North 258 297 8,000  Level FlightAware ADS-B
Thu 02:12:23 AM 28.3700 77.5680 341° North 239 275 8,000  Level FlightAware ADS-B
Thu 02:12:53 AM 28.3940 77.5480 324° Northwest 209 241 8,000 -200 Level FlightAware ADS-B
Thu 02:13:23 AM 28.4170 77.5310 327° Northwest 182 209 7,800 -873 Descending FlightAware ADS-B
Thu 02:13:48 AM 28.4360 77.5160 325° Northwest 180 207 7,200 -1,636 Descending FlightAware ADS-B
Thu 02:14:18 AM 28.4530 77.4960 314° West 188 216 6,300 -1,733 Descending FlightAware ADS-B
Thu 02:14:33 AM 28.4580 77.4830 294° West 199 229 5,900 -1,600 Descending FlightAware ADS-B
Thu 02:14:48 AM 28.4610 77.4670 282° West 200 230 5,500 -1,200 Descending FlightAware ADS-B
Thu 02:15:13 AM 28.4660 77.4420 283° West 195 224 5,100 -764 Descending FlightAware ADS-B
Thu 02:15:43 AM 28.4720 77.4130 283° West 190 219 4,800 -655 Descending FlightAware ADS-B
Thu 02:16:08 AM 28.4780 77.3870 285° West 191 220 4,500 -655 Descending FlightAware ADS-B
Thu 02:16:38 AM 28.4840 77.3590 284° West 177 204 4,200 -667 Descending FlightAware ADS-B
Thu 02:16:53 AM 28.4870 77.3460 285° West 175 201 4,000 -600 Descending FlightAware ADS-B
Thu 02:17:18 AM 28.4920 77.3240 285° West 173 199 3,800 -450 Descending FlightAware ADS-B
Thu 02:17:33 AM 28.4940 77.3100 279° West 176 203 3,700 -267 Descending FlightAware ADS-B
Thu 02:18:03 AM 28.5000 77.2840 285° West 170 196 3,600 -218 Descending FlightAware ADS-B
Thu 02:18:28 AM 28.5050 77.2620 285° West 171 197 3,500 -300 Descending FlightAware ADS-B
Thu 02:18:43 AM 28.5080 77.2490 285° West 172 198 3,400 -400 Descending FlightAware ADS-B
Thu 02:19:13 AM 28.5130 77.2220 282° West 171 197 3,200 -545 Descending FlightAware ADS-B
Thu 02:19:38 AM 28.5180 77.2000 285° West 167 192 2,900 -764 Descending FlightAware ADS-B
Thu 02:20:08 AM 28.5240 77.1750 285° West 168 193 2,500 -873 Descending FlightAware ADS-B
Thu 02:20:33 AM 28.5280 77.1540 282° West 161 185 2,100 -873 Descending FlightAware ADS-B
Thu 02:21:03 AM 28.5330 77.1300 283° West 156 180 1,700 -655 Descending FlightAware ADS-B
Thu 02:21:28 AM 28.5360 77.1170 285° West 161 185 1,500 -600 Descending FlightAware ADS-B
Thu 02:21:53 AM 28.5410 77.0950 285° West 158 182 1,200  Descending FlightAware ADS-B
Thu 02:34:00 AM 28.6728 76.9522 313° West  Level Estimated
Thu 02:38:00 AM 28.6867 76.9501 313° West  Level Estimated
Thu 02:39:00 AM 28.7460 76.8778 313° West  Level Estimated
Thu 02:40:00 AM 28.8053 76.8054 313° West  Level Estimated
Thu 02:41:00 AM 28.8645 76.7329 313° West  Level Estimated
Thu 02:42:00 AM 28.9237 76.6603 313° West  Level Estimated
Thu 02:43:00 AM 28.9828 76.5876 313° West  Level Estimated
Thu 02:44:00 AM 29.0420 76.5149 313° West  Level Estimated
Thu 02:45:00 AM 29.1010 76.4420 313° West  Level Estimated
Thu 02:46:00 AM 29.1601 76.3691 313° West  Level Estimated
Thu 02:47:00 AM 29.2191 76.2961 313° West  Level Estimated
Thu 02:48:00 AM 29.2780 76.2230 313° West  Level Estimated
Thu 02:49:00 AM 29.3370 76.1498 313° West  Level Estimated
Thu 02:50:00 AM 29.3958 76.0766 313° West  Level Estimated
Thu 02:51:00 AM 29.4547 76.0033 313° West  Level Estimated
Thu 02:52:00 AM 29.5135 75.9298 313° West  Level Estimated
Thu 02:53:00 AM 29.5722 75.8563 313° West  Level Estimated
Thu 02:54:00 AM 29.6310 75.7827 313° West  Level Estimated
Thu 02:55:00 AM 29.6896 75.7090 313° West  Level Estimated
Thu 02:56:00 AM 29.7483 75.6353 312° West  Level Estimated
Thu 02:57:00 AM 29.8069 75.5614 312° West  Level Estimated
Thu 02:58:00 AM 29.8654 75.4875 312° West  Level Estimated
Thu 02:59:00 AM 29.9240 75.4134 312° West  Level Estimated
Thu 03:00:00 AM 29.9824 75.3393 312° West  Level Estimated
Thu 03:01:00 AM 30.0408 75.2651 312° West  Level Estimated
Thu 03:02:00 AM 30.0992 75.1908 312° West  Level Estimated
Thu 03:03:00 AM 30.1576 75.1164 312° West  Level Estimated
Thu 03:04:00 AM 30.2159 75.0420 312° West  Level Estimated
Thu 03:05:00 AM 30.2742 74.9674 312° West  Level Estimated
Thu 03:06:00 AM 30.3324 74.8928 312° West  Level Estimated
Thu 03:07:00 AM 30.3906 74.8180 312° West  Level Estimated
Thu 03:08:00 AM 30.4487 74.7432 312° West  Level Estimated
Thu 03:09:00 AM 30.5068 74.6683 312° West  Level Estimated
Thu 03:10:00 AM 30.5648 74.5933 312° West  Level Estimated
Thu 03:11:00 AM 30.6229 74.5182 312° West  Level Estimated
Thu 03:12:00 AM 30.6808 74.4430 312° West  Level Estimated
Thu 03:13:00 AM 30.7387 74.3678 312° West  Level Estimated
Thu 03:14:00 AM 30.7966 74.2924 312° West  Level Estimated
Thu 03:15:00 AM 30.8544 74.2170 312° West  Level Estimated
Thu 03:16:00 AM 30.9122 74.1414 312° West  Level Estimated
Thu 03:17:00 AM 30.9700 74.0658 312° West  Level Estimated
Thu 03:18:00 AM 31.0277 73.9901 312° West  Level Estimated
Thu 03:19:00 AM 31.0853 73.9142 312° West  Level Estimated
Thu 03:20:00 AM 31.1430 73.8383 312° West  Level Estimated
Thu 03:21:00 AM 31.2005 73.7623 312° West  Level Estimated
Thu 03:22:00 AM 31.2580 73.6862 311° West  Level Estimated
Thu 03:23:00 AM 31.3155 73.6100 311° West  Level Estimated
Thu 03:24:00 AM 31.3729 73.5338 311° West  Level Estimated
Thu 03:25:00 AM 31.4303 73.4574 311° West  Level Estimated
Thu 03:26:00 AM 31.4877 73.3809 311° West  Level Estimated
Thu 03:27:00 AM 31.5450 73.3044 311° West  Level Estimated
Thu 03:28:00 AM 31.6022 73.2277 311° West  Level Estimated
Thu 03:29:00 AM 31.6594 73.1509 311° West  Level Estimated
Thu 03:30:00 AM 31.7166 73.0741 311° West  Level Estimated
Thu 03:31:00 AM 31.7737 72.9972 311° West  Level Estimated
Thu 03:32:00 AM 31.8308 72.9201 311° West  Level Estimated
Thu 03:33:00 AM 31.8878 72.8430 311° West  Level Estimated
Thu 03:34:00 AM 31.9448 72.7658 311° West  Level Estimated
Thu 03:35:00 AM 32.0017 72.6885 311° West  Level Estimated
Thu 03:36:00 AM 32.0586 72.6110 311° West  Level Estimated
Thu 03:37:00 AM 32.1154 72.5335 311° West  Level Estimated
Thu 03:38:00 AM 32.1722 72.4559 311° West  Level Estimated
Thu 03:39:00 AM 32.2290 72.3782 311° West  Level Estimated
Thu 03:40:00 AM 32.2856 72.3004 311° West  Level Estimated
Thu 03:41:00 AM 32.3423 72.2225 311° West  Level Estimated
Thu 03:42:00 AM 32.3989 72.1445 311° West  Level Estimated
Thu 03:43:00 AM 32.4554 72.0664 311° West  Level Estimated
Thu 03:44:00 AM 32.5119 71.9882 311° West  Level Estimated
Thu 03:45:00 AM 32.5684 71.9099 311° West  Level Estimated
Thu 03:46:00 AM 32.6248 71.8315 311° West  Level Estimated
Thu 03:47:00 AM 32.6811 71.7530 310° West  Level Estimated
Thu 03:48:00 AM 32.7374 71.6745 310° West  Level Estimated
Thu 03:49:00 AM 32.7937 71.5958 310° West  Level Estimated
Thu 03:50:00 AM 32.8499 71.5170 310° West  Level Estimated
Thu 03:51:00 AM 32.9061 71.4381 310° West  Level Estimated
Thu 03:52:00 AM 32.9622 71.3591 310° West  Level Estimated
Thu 03:53:00 AM 33.0182 71.2800 310° West  Level Estimated
Thu 03:54:00 AM 33.0742 71.2008 310° West  Level Estimated
Thu 03:55:00 AM 33.1302 71.1215 310° West  Level Estimated
Thu 03:56:00 AM 33.1861 71.0421 310° West  Level Estimated
Thu 03:57:00 AM 33.2420 70.9626 310° West  Level Estimated
Thu 03:58:00 AM 33.2978 70.8830 310° West  Level Estimated
Thu 03:59:00 AM 33.3535 70.8034 310° West  Level Estimated
Thu 04:00:00 AM 33.4092 70.7235 310° West  Level Estimated
Thu 04:01:00 AM 33.4649 70.6436 310° West  Level Estimated
Thu 04:02:00 AM 33.5205 70.5637 310° West  Level Estimated
Thu 04:03:00 AM 33.5760 70.4835 310° West  Level Estimated
Thu 04:04:00 AM 33.6315 70.4033 310° West  Level Estimated
Thu 04:05:00 AM 33.6870 70.3230 310° West  Level Estimated
Thu 04:06:00 AM 33.7424 70.2426 310° West  Level Estimated
Thu 04:07:00 AM 33.7977 70.1621 310° West  Level Estimated
Thu 04:08:00 AM 33.8530 70.0815 310° West  Level Estimated
Thu 04:09:00 AM 33.9083 70.0007 310° West  Level Estimated
Thu 04:10:00 AM 33.9635 69.9199 309° West  Level Estimated
Thu 04:11:00 AM 34.0186 69.8390 309° West  Level Estimated
Thu 04:12:00 AM 34.0737 69.7579 309° West  Level Estimated
Thu 04:13:00 AM 34.1287 69.6768 309° West  Level Estimated
Thu 04:14:00 AM 34.1837 69.5955 309° West  Level Estimated
Thu 04:15:00 AM 34.2386 69.5142 309° West  Level Estimated
Thu 04:16:00 AM 34.2935 69.4327 309° West  Level Estimated
Thu 04:17:00 AM 34.3483 69.3511 309° West  Level Estimated
Thu 04:18:00 AM 34.4030 69.2694 309° West  Level Estimated
Thu 04:19:00 AM 34.4577 69.1877 309° West  Level Estimated
Thu 04:20:00 AM 34.5124 69.1058 309° West  Level Estimated
Thu 04:21:00 AM 34.5670 69.0238 309° West  Level Estimated
Thu 04:22:00 AM 34.6215 68.9417 309° West  Level Estimated
Thu 04:23:00 AM 34.6760 68.8594 309° West  Level Estimated
Thu 04:24:00 AM 34.7304 68.7771 309° West  Level Estimated
Thu 04:25:00 AM 34.7848 68.6947 309° West  Level Estimated
Thu 04:26:00 AM 34.8391 68.6121 309° West  Level Estimated
Thu 04:27:00 AM 34.8934 68.5295 309° West  Level Estimated
Thu 04:28:00 AM 34.9476 68.4467 309° West  Level Estimated
Thu 04:29:00 AM 35.0017 68.3639 309° West  Level Estimated
Thu 04:30:00 AM 35.0558 68.2809 309° West  Level Estimated
Thu 04:31:00 AM 35.1099 68.1978 308° West  Level Estimated
Thu 04:32:00 AM 35.1638 68.1146 308° West  Level Estimated
Thu 04:33:00 AM 35.2178 68.0313 308° West  Level Estimated
Thu 04:34:00 AM 35.2716 67.9479 308° West  Level Estimated
Thu 04:35:00 AM 35.3254 67.8643 308° West  Level Estimated
Thu 04:36:00 AM 35.3792 67.7807 308° West  Level Estimated
Thu 04:37:00 AM 35.4329 67.6969 308° West  Level Estimated
Thu 04:38:00 AM 35.4865 67.6131 308° West  Level Estimated
Thu 04:39:00 AM 35.5401 67.5291 308° West  Level Estimated
Thu 04:40:00 AM 35.5936 67.4450 308° West  Level Estimated
Thu 04:41:00 AM 35.6471 67.3608 308° West  Level Estimated
Thu 04:42:00 AM 35.7005 67.2765 308° West  Level Estimated
Thu 04:43:00 AM 35.7538 67.1921 308° West  Level Estimated
Thu 04:44:00 AM 35.8071 67.1075 308° West  Level Estimated
Thu 04:45:00 AM 35.8603 67.0229 308° West  Level Estimated
Thu 04:46:00 AM 35.9135 66.9381 308° West  Level Estimated
Thu 04:52:00 AM 28.6639 76.9911 313° West  Level Estimated
Thu 04:54:17 AM 28.5670 77.0860 284° West 185 213 1,500  Level FlightAware ADS-B
Thu 04:54:42 AM 28.5730 77.0630 287° West 184 212 2,300 1,500 Climbing FlightAware ADS-B
Thu 04:54:57 AM 28.5760 77.0470 282° West 190 219 2,500 600 Climbing FlightAware ADS-B
Thu 04:55:32 AM 28.5840 77.0110 284° West 223 257 2,800 1,015 Climbing FlightAware ADS-B
Thu 04:56:02 AM 28.5960 76.9600 285° West 260 299 3,600 1,527 Climbing FlightAware ADS-B
Thu 04:56:27 AM 28.6040 76.9260 285° West 277 319 4,200 1,650 Climbing FlightAware ADS-B
Thu 04:56:42 AM 28.6090 76.9020 283° West 287 330 4,700 2,000 Climbing FlightAware ADS-B
Thu 04:57:12 AM 28.6120 76.8600 275° West 296 341 5,700 2,291 Climbing FlightAware ADS-B
Thu 04:57:37 AM 28.6140 76.8190 273° West 297 342 6,800 2,509 Climbing FlightAware ADS-B
Thu 04:58:07 AM 28.6160 76.7730 273° West 299 344 8,000 2,800 Climbing FlightAware ADS-B
Thu 04:58:22 AM 28.6180 76.7470 275° West 301 346 8,900 3,000 Climbing FlightAware ADS-B
Thu 04:58:47 AM 28.6200 76.7100 274° West 299 344 10,000 1,846 Climbing FlightAware ADS-B
Thu 04:59:27 AM 28.6260 76.6610 278° West 311 358 10,900 840 Climbing FlightAware ADS-B
Thu 05:00:27 AM 28.6400 76.5770 281° West 336 387 11,400 300 Climbing FlightAware ADS-B
Thu 05:01:07 AM 28.6490 76.5180 280° West 336 387 11,400 2,560 Level FlightAware ADS-B
Thu 05:01:42 AM 28.6650 76.4230 281° West 386 444 14,600 2,400 Climbing FlightAware ADS-B
Thu 05:02:27 AM 28.6780 76.3390 280° West 386 444 14,600 1,943 Level FlightAware ADS-B
Thu 05:03:27 AM 28.6840 76.1940 273° West 423 487 18,000 2,857 Climbing FlightAware ADS-B
Thu 05:04:12 AM 28.6800 76.0700 268° West 437 503 19,600 2,025 Climbing FlightAware ADS-B
Thu 05:04:47 AM 28.6760 75.9820 267° West 445 512 20,700 1,624 Climbing FlightAware ADS-B
Thu 05:05:37 AM 28.6700 75.8600 267° West 458 527 21,900 1,467 Climbing FlightAware ADS-B
Thu 05:06:17 AM 28.6650 75.7620 267° West 464 534 22,900 1,482 Climbing FlightAware ADS-B
Thu 05:07:02 AM 28.6600 75.6580 267° West 468 539 24,000 1,341 Climbing FlightAware ADS-B
Thu 05:07:42 AM 28.6540 75.5560 266° West 474 545 24,800 1,200 Climbing FlightAware ADS-B
Thu 05:08:22 AM 28.6490 75.4560 267° West 481 554 25,600 1,412 Climbing FlightAware ADS-B
Thu 05:09:07 AM 28.6430 75.3400 267° West 478 550 26,800 1,624 Climbing FlightAware ADS-B
Thu 05:09:47 AM 28.6380 75.2400 267° West 471 542 27,900 1,624 Climbing FlightAware ADS-B
Thu 05:10:32 AM 28.6320 75.1310 266° West 465 535 29,100 1,271 Climbing FlightAware ADS-B
Thu 05:11:12 AM 28.6270 75.0350 267° West 466 536 29,700 880 Climbing FlightAware ADS-B
Thu 05:11:47 AM 28.6220 74.9520 266° West 467 537 30,200 375 Climbing FlightAware ADS-B
Thu 05:12:32 AM 28.6160 74.8520 266° West 467 537 30,200 1,067 Level FlightAware ADS-B
Thu 05:13:17 AM 28.6100 74.7300 267° West 459 528 31,800 1,271 Climbing FlightAware ADS-B
Thu 05:13:57 AM 28.6040 74.6410 266° West 459 528 32,000 150 Climbing FlightAware ADS-B
Thu 05:14:37 AM 28.5990 74.5590 266° West 459 528 32,000  Level FlightAware ADS-B
Thu 05:15:17 AM 28.5940 74.4770 266° West 459 528 32,000  Level FlightAware ADS-B
Thu 05:16:07 AM 28.5880 74.3750 266° West 459 528 32,000  Level FlightAware ADS-B
Thu 05:16:47 AM 28.5830 74.2930 266° West 459 528 32,000  Level FlightAware ADS-B
Thu 05:17:27 AM 28.5780 74.2110 266° West 459 528 32,000  Level FlightAware ADS-B
Thu 05:18:07 AM 28.5730 74.1290 266° West 459 528 32,000  Level FlightAware ADS-B
Thu 05:18:47 AM 28.5680 74.0470 266° West 459 528 32,000  Level FlightAware ADS-B
Thu 05:19:37 AM 28.5620 73.9440 266° West 459 528 32,000  Level FlightAware ADS-B
Thu 05:20:17 AM 28.5570 73.8620 266° West 459 528 32,000  Level FlightAware ADS-B
Thu 05:20:57 AM 28.5520 73.7800 266° West 459 528 32,000  Level FlightAware ADS-B
Thu 05:21:42 AM 28.5410 73.5130 267° West 460 529 32,000  Level FlightAware ADS-B
Thu 05:22:22 AM 28.5370 73.4150 267° West 460 529 32,000  Level FlightAware ADS-B
Thu 05:23:12 AM 28.5320 73.3020 267° West 460 529 32,000  Level FlightAware ADS-B
Thu 05:24:02 AM 28.5260 73.1750 267° West 461 531 32,000  Level FlightAware ADS-B
Thu 05:25:12 AM 28.5190 73.0190 267° West 461 531 32,000  Level FlightAware ADS-B
Thu 05:25:47 AM 28.5150 72.9280 267° West 462 532 32,000  Level FlightAware ADS-B
Thu 05:26:37 AM 28.5100 72.8250 267° West 462 532 32,000  Level FlightAware ADS-B
Thu 05:27:17 AM 28.5060 72.7420 267° West 462 532 32,000  Level FlightAware ADS-B
Thu 05:28:12 AM 28.4970 72.5740 267° West 466 536 32,000  Level FlightAware ADS-B
Thu 05:28:52 AM 28.4920 72.4910 266° West 466 536 32,000  Level FlightAware ADS-B
Thu 05:29:32 AM 28.4860 72.4080 265° West 466 536 32,000  Level FlightAware ADS-B
Thu 05:30:12 AM 28.4880 72.2800 271° West 466 536 32,000  Level FlightAware ADS-B
Thu 05:30:57 AM 28.5060 72.1820 282° West 466 536 32,000  Level FlightAware ADS-B
Thu 05:31:37 AM 28.5210 72.1010 282° West 466 536 32,000  Level FlightAware ADS-B
Thu 05:32:27 AM 28.5400 71.9990 282° West 466 536 32,000  Level FlightAware ADS-B
Thu 05:33:07 AM 28.5560 71.9170 283° West 466 536 32,000  Level FlightAware ADS-B
Thu 05:33:47 AM 28.5710 71.8360 282° West 466 536 32,000  Level FlightAware ADS-B
Thu 05:34:27 AM 28.5860 71.7540 282° West 466 536 32,000  Level FlightAware ADS-B
Thu 05:35:07 AM 28.6010 71.6720 282° West 466 536 32,000  Level FlightAware ADS-B
Thu 05:35:57 AM 28.6200 71.5700 282° West 466 536 32,000  Level FlightAware ADS-B
Thu 05:36:37 AM 28.6360 71.4880 283° West 466 536 32,000  Level FlightAware ADS-B
Thu 05:37:17 AM 28.6510 71.4070 282° West 466 536 32,000  Level FlightAware ADS-B
Thu 05:37:57 AM 28.6660 71.3250 282° West 466 536 32,000  Level FlightAware ADS-B
Thu 05:38:37 AM 28.6810 71.2430 282° West 466 536 32,000  Level FlightAware ADS-B
Thu 05:39:27 AM 28.7000 71.1410 282° West 466 536 32,000  Level FlightAware ADS-B
Thu 05:40:07 AM 28.7160 71.0590 283° West 466 536 32,000  Level FlightAware ADS-B
Thu 05:42:00 AM 28.8273 70.9222 313° West  Level Estimated
Thu 05:43:00 AM 28.8863 70.8495 313° West  Level Estimated
Thu 05:44:00 AM 28.9453 70.7767 313° West  Level Estimated
Thu 05:45:00 AM 29.0042 70.7038 313° West  Level Estimated
Thu 05:46:00 AM 29.0632 70.6308 313° West  Level Estimated
Thu 05:47:00 AM 29.1220 70.5577 313° West  Level Estimated
Thu 05:48:00 AM 29.1809 70.4846 313° West  Level Estimated
Thu 05:49:00 AM 29.2397 70.4113 313° West  Level Estimated
Thu 05:50:00 AM 29.2984 70.3380 313° West  Level Estimated
Thu 05:51:00 AM 29.3571 70.2646 313° West  Level Estimated
Thu 05:52:00 AM 29.4158 70.1911 313° West  Level Estimated
Thu 05:53:00 AM 29.4744 70.1175 312° West  Level Estimated
Thu 05:54:00 AM 29.5330 70.0439 312° West  Level Estimated
Thu 05:55:00 AM 29.5916 69.9701 312° West  Level Estimated
Thu 05:56:00 AM 29.6501 69.8963 312° West  Level Estimated
Thu 05:57:00 AM 29.7085 69.8224 312° West  Level Estimated
Thu 05:58:00 AM 29.7670 69.7484 312° West  Level Estimated
Thu 05:59:00 AM 29.8253 69.6743 312° West  Level Estimated
Thu 06:00:00 AM 29.8837 69.6001 312° West  Level Estimated
Thu 06:01:00 AM 29.9420 69.5258 312° West  Level Estimated
Thu 06:02:00 AM 30.0003 69.4515 312° West  Level Estimated
Thu 06:03:00 AM 30.0585 69.3770 312° West  Level Estimated
Thu 06:04:00 AM 30.1167 69.3025 312° West  Level Estimated
Thu 06:05:00 AM 30.1748 69.2279 312° West  Level Estimated
Thu 06:06:00 AM 30.2329 69.1532 312° West  Level Estimated
Thu 06:07:00 AM 30.2909 69.0784 312° West  Level Estimated
Thu 06:08:00 AM 30.3489 69.0035 312° West  Level Estimated
Thu 06:09:00 AM 30.4069 68.9286 312° West  Level Estimated
Thu 06:10:00 AM 30.4648 68.8535 312° West  Level Estimated
Thu 06:11:00 AM 30.5227 68.7784 312° West  Level Estimated
Thu 06:12:00 AM 30.5806 68.7031 312° West  Level Estimated
Thu 06:13:00 AM 30.6383 68.6278 312° West  Level Estimated
Thu 06:14:00 AM 30.6961 68.5524 312° West  Level Estimated
Thu 06:15:00 AM 30.7538 68.4769 312° West  Level Estimated
Thu 06:16:00 AM 30.8115 68.4013 312° West  Level Estimated
Thu 06:17:00 AM 30.8691 68.3256 312° West  Level Estimated
Thu 06:18:00 AM 30.9267 68.2498 312° West  Level Estimated
Thu 06:19:00 AM 30.9842 68.1739 312° West  Level Estimated
Thu 06:20:00 AM 31.0417 68.0980 311° West  Level Estimated
Thu 06:21:00 AM 31.0991 68.0219 311° West  Level Estimated
Thu 06:22:00 AM 31.1565 67.9458 311° West  Level Estimated
Thu 06:23:00 AM 31.2139 67.8695 311° West  Level Estimated
Thu 06:24:00 AM 31.2712 67.7932 311° West  Level Estimated
Thu 06:25:00 AM 31.3284 67.7168 311° West  Level Estimated
Thu 06:26:00 AM 31.3857 67.6403 311° West  Level Estimated
Thu 06:27:00 AM 31.4428 67.5637 311° West  Level Estimated
Thu 06:28:00 AM 31.5000 67.4870 311° West  Level Estimated
Thu 06:29:00 AM 31.5571 67.4102 311° West  Level Estimated
Thu 06:30:00 AM 31.6141 67.3333 311° West  Level Estimated
Thu 06:31:00 AM 31.6711 67.2563 311° West  Level Estimated
Thu 06:32:00 AM 31.7280 67.1792 311° West  Level Estimated
Thu 06:33:00 AM 31.7849 67.1021 311° West  Level Estimated
Thu 06:34:00 AM 31.8418 67.0248 311° West  Level Estimated
Thu 06:35:00 AM 31.8986 66.9474 311° West  Level Estimated
Thu 06:36:00 AM 31.9553 66.8700 311° West  Level Estimated
Thu 06:37:00 AM 32.0120 66.7924 311° West  Level Estimated
Thu 06:38:00 AM 32.0687 66.7148 311° West  Level Estimated
Thu 06:39:00 AM 32.1253 66.6370 311° West  Level Estimated
Thu 06:40:00 AM 32.1819 66.5592 311° West  Level Estimated
Thu 06:41:00 AM 32.2384 66.4812 311° West  Level Estimated
Thu 06:42:00 AM 32.2949 66.4032 311° West  Level Estimated
Thu 06:43:00 AM 32.3513 66.3251 311° West  Level Estimated
Thu 06:44:00 AM 32.4076 66.2468 310° West  Level Estimated
Thu 06:45:00 AM 32.4640 66.1685 310° West  Level Estimated
Thu 06:46:00 AM 32.5203 66.0901 310° West  Level Estimated
Thu 06:47:00 AM 32.5765 66.0115 310° West  Level Estimated
Thu 06:48:00 AM 32.6327 65.9329 310° West  Level Estimated
Thu 06:49:00 AM 32.6888 65.8542 310° West  Level Estimated
Thu 06:50:00 AM 32.7449 65.7754 310° West  Level Estimated
Thu 06:51:00 AM 32.8009 65.6965 310° West  Level Estimated
Thu 06:52:00 AM 32.8569 65.6174 310° West  Level Estimated
Thu 06:53:00 AM 32.9128 65.5383 310° West  Level Estimated
Thu 06:54:00 AM 32.9687 65.4591 310° West  Level Estimated
Thu 06:55:00 AM 33.0245 65.3798 310° West  Level Estimated
Thu 06:56:00 AM 33.0803 65.3004 310° West  Level Estimated
Thu 06:57:00 AM 33.1360 65.2208 310° West  Level Estimated
Thu 06:58:00 AM 33.1917 65.1412 310° West  Level Estimated
Thu 06:59:00 AM 33.2473 65.0615 310° West  Level Estimated
Thu 07:00:00 AM 33.3029 64.9817 310° West  Level Estimated
Thu 07:01:00 AM 33.3585 64.9017 310° West  Level Estimated
Thu 07:02:00 AM 33.4139 64.8217 310° West  Level Estimated
Thu 07:03:00 AM 33.4694 64.7416 310° West  Level Estimated
Thu 07:04:00 AM 33.5247 64.6613 310° West  Level Estimated
Thu 07:05:00 AM 33.5801 64.5810 310° West  Level Estimated
Thu 07:06:00 AM 33.6353 64.5006 310° West  Level Estimated
Thu 07:07:00 AM 33.6906 64.4200 310° West  Level Estimated
Thu 07:08:00 AM 33.7457 64.3394 309° West  Level Estimated
Thu 07:09:00 AM 33.8008 64.2586 309° West  Level Estimated
Thu 07:10:00 AM 33.8559 64.1778 309° West  Level Estimated
Thu 07:11:00 AM 33.9109 64.0968 309° West  Level Estimated
Thu 07:12:00 AM 33.9659 64.0158 309° West  Level Estimated
Thu 07:13:00 AM 34.0207 63.9346 309° West  Level Estimated
Thu 07:14:00 AM 34.0756 63.8533 309° West  Level Estimated
Thu 07:15:00 AM 34.1304 63.7719 309° West  Level Estimated
Thu 07:16:00 AM 34.1851 63.6905 309° West  Level Estimated
Thu 07:17:00 AM 34.2398 63.6089 309° West  Level Estimated
Thu 07:18:00 AM 34.2944 63.5272 309° West  Level Estimated
Thu 07:19:00 AM 34.3490 63.4454 309° West  Level Estimated
Thu 07:20:00 AM 34.4035 63.3635 309° West  Level Estimated
Thu 07:21:00 AM 34.4580 63.2814 309° West  Level Estimated
Thu 07:22:00 AM 34.5124 63.1993 309° West  Level Estimated
Thu 07:23:00 AM 34.5668 63.1171 309° West  Level Estimated
Thu 07:24:00 AM 34.6211 63.0348 309° West  Level Estimated
Thu 07:25:00 AM 34.6753 62.9523 309° West  Level Estimated
Thu 07:26:00 AM 34.7295 62.8698 309° West  Level Estimated
Thu 07:27:00 AM 34.7837 62.7871 309° West  Level Estimated
Thu 07:28:00 AM 34.8377 62.7043 309° West  Level Estimated
Thu 07:29:00 AM 34.8918 62.6215 308° West  Level Estimated
Thu 07:30:00 AM 34.9458 62.5385 308° West  Level Estimated
Thu 07:31:00 AM 34.9997 62.4554 308° West  Level Estimated
Thu 07:32:00 AM 35.0535 62.3722 308° West  Level Estimated
Thu 07:33:00 AM 35.1073 62.2888 308° West  Level Estimated
Thu 07:34:00 AM 35.1611 62.2054 308° West  Level Estimated
Thu 07:35:00 AM 35.2147 62.1219 308° West  Level Estimated
Thu 07:36:00 AM 35.2684 62.0382 308° West  Level Estimated
Thu 07:37:00 AM 35.3219 61.9545 308° West  Level Estimated
Thu 07:38:00 AM 35.3755 61.8706 308° West  Level Estimated
Thu 07:39:00 AM 35.4289 61.7866 308° West  Level Estimated
Thu 07:40:00 AM 35.4823 61.7025 308° West  Level Estimated
Thu 07:41:00 AM 35.5356 61.6183 308° West  Level Estimated
Thu 07:42:00 AM 35.5889 61.5340 308° West  Level Estimated
Thu 07:43:00 AM 35.6421 61.4496 308° West  Level Estimated
Thu 07:44:00 AM 35.6953 61.3650 308° West  Level Estimated
Thu 07:45:00 AM 35.7484 61.2804 308° West  Level Estimated
Thu 07:46:00 AM 35.8014 61.1956 308° West  Level Estimated
Thu 07:47:00 AM 35.8544 61.1107 308° West  Level Estimated
Thu 07:48:00 AM 35.9073 61.0258 308° West  Level Estimated
Thu 07:49:00 AM 35.9602 60.9407 308° West  Level Estimated
Thu 07:50:00 AM 36.0130 60.8554 307° West  Level Estimated
Thu 07:51:00 AM 36.0657 60.7701 307° West  Level Estimated
Thu 07:52:00 AM 36.1184 60.6847 307° West  Level Estimated
Thu 07:53:00 AM 36.1710 60.5991 307° West  Level Estimated
Thu 07:54:00 AM 36.2236 60.5134 307° West  Level Estimated
Thu 07:55:00 AM 36.2761 60.4276 307° West  Level Estimated
Thu 07:56:00 AM 36.3285 60.3417 307° West  Level Estimated
Thu 07:57:00 AM 36.3809 60.2557 307° West  Level Estimated
Thu 07:58:00 AM 36.4332 60.1696 307° West  Level Estimated
Thu 07:59:00 AM 36.4855 60.0833 307° West  Level Estimated
Thu 08:00:00 AM 36.5377 59.9969 307° West  Level Estimated
Thu 08:01:00 AM 36.5898 59.9104 307° West  Level Estimated
Thu 08:02:00 AM 36.6419 59.8238 307° West  Level Estimated
Thu 08:03:00 AM 36.6939 59.7371 307° West  Level Estimated
Thu 08:04:00 AM 36.7458 59.6503 307° West  Level Estimated
Thu 08:05:00 AM 36.7977 59.5633 307° West  Level Estimated
Thu 08:06:00 AM 36.8495 59.4762 307° West  Level Estimated
Thu 08:07:00 AM 36.9012 59.3890 307° West  Level Estimated
Thu 08:08:00 AM 36.9529 59.3017 307° West  Level Estimated
Thu 08:09:00 AM 37.0046 59.2143 306° West  Level Estimated
Thu 08:10:00 AM 37.0561 59.1267 306° West  Level Estimated
Thu 08:11:00 AM 37.1076 59.0391 306° West  Level Estimated
Thu 08:12:00 AM 37.1590 58.9513 306° West  Level Estimated
Thu 08:13:00 AM 37.2104 58.8634 306° West  Level Estimated
Thu 08:14:00 AM 37.2617 58.7753 306° West  Level Estimated
Thu 08:15:00 AM 37.3129 58.6872 306° West  Level Estimated
Thu 08:16:00 AM 37.3641 58.5989 306° West  Level Estimated
Thu 08:17:00 AM 37.4152 58.5105 306° West  Level Estimated
Thu 08:18:00 AM 37.4662 58.4220 306° West  Level Estimated
Thu 08:19:00 AM 37.5172 58.3334 306° West  Level Estimated
Thu 08:20:00 AM 37.5681 58.2446 306° West  Level Estimated
Thu 08:21:00 AM 37.6189 58.1558 306° West  Level Estimated
Thu 08:22:00 AM 37.6697 58.0668 306° West  Level Estimated
Thu 08:23:00 AM 37.7204 57.9777 306° West  Level Estimated
Thu 08:24:00 AM 37.7711 57.8884 306° West  Level Estimated
Thu 08:25:00 AM 37.8216 57.7991 306° West  Level Estimated
Thu 08:26:00 AM 37.8721 57.7096 306° West  Level Estimated
Thu 08:27:00 AM 37.9226 57.6200 306° West  Level Estimated
Thu 08:28:00 AM 37.9729 57.5303 305° West  Level Estimated
Thu 08:29:00 AM 38.0232 57.4404 305° West  Level Estimated
Thu 08:30:00 AM 38.0735 57.3504 305° West  Level Estimated
Thu 08:31:00 AM 38.1236 57.2603 305° West  Level Estimated
Thu 08:32:00 AM 38.1737 57.1701 305° West  Level Estimated
Thu 08:32:07 AM 43.7770 51.0320 305° West 482 555 32,000  Level FlightAware ADS-B
Thu 08:32:47 AM 43.8390 50.9360 312° West 482 555 32,000  Level FlightAware ADS-B
Thu 08:33:32 AM 43.9060 50.8330 312° West 484 557 32,000  Level FlightAware ADS-B
Thu 08:34:12 AM 43.9630 50.7430 311° West 486 559 32,000  Level FlightAware ADS-B
Thu 08:34:52 AM 44.0250 50.6460 312° West 486 559 32,000  Level FlightAware ADS-B
Thu 08:35:37 AM 44.0920 50.5410 312° West 486 559 32,000  Level FlightAware ADS-B
Thu 08:36:17 AM 44.1490 50.4500 311° West 484 557 32,000  Level FlightAware ADS-B
Thu 08:36:57 AM 44.2070 50.3580 311° West 485 558 32,000  Level FlightAware ADS-B
Thu 08:37:42 AM 44.2770 50.2470 311° West 486 559 32,000  Level FlightAware ADS-B
Thu 08:38:27 AM 44.3430 50.1420 311° West 486 559 32,000  Level FlightAware ADS-B
Thu 08:39:07 AM 44.4020 50.0480 311° West 486 559 32,000  Level FlightAware ADS-B
Thu 08:39:47 AM 44.4620 49.9510 311° West 486 559 32,000  Level FlightAware ADS-B
Thu 08:40:32 AM 44.5270 49.8460 311° West 485 558 32,000  Level FlightAware ADS-B
Thu 08:41:12 AM 44.5860 49.7510 311° West 483 556 32,000  Level FlightAware ADS-B
Thu 08:41:52 AM 44.6430 49.6580 311° West 482 555 32,000  Level FlightAware ADS-B
Thu 08:42:37 AM 44.7080 49.5520 311° West 481 554 32,000  Level FlightAware ADS-B
Thu 08:43:17 AM 44.7650 49.4510 309° West 480 552 32,000  Level FlightAware ADS-B
Thu 08:44:02 AM 44.8230 49.3360 305° West 480 552 32,000  Level FlightAware ADS-B
Thu 08:44:42 AM 44.8720 49.2320 304° West 483 556 32,000  Level FlightAware ADS-B
Thu 08:45:22 AM 44.9190 49.1270 302° West 482 555 32,000  Level FlightAware ADS-B
Thu 08:46:02 AM 44.9630 49.0270 302° West 479 551 32,000  Level FlightAware ADS-B
Thu 08:46:47 AM 45.0190 48.8990 302° West 477 549 32,000  Level FlightAware ADS-B
Thu 08:47:32 AM 45.0700 48.7800 301° West 475 547 32,000  Level FlightAware ADS-B
Thu 08:48:12 AM 45.1150 48.6760 302° West 474 545 32,000  Level FlightAware ADS-B
Thu 08:48:52 AM 45.1620 48.5690 302° West 474 545 32,000  Level FlightAware ADS-B
Thu 08:49:37 AM 45.2130 48.4490 301° West 474 545 32,000  Level FlightAware ADS-B
Thu 08:50:17 AM 45.2580 48.3450 302° West 473 544 32,000  Level FlightAware ADS-B
Thu 08:50:57 AM 45.2990 48.2480 301° West 472 543 32,000  Level FlightAware ADS-B
Thu 08:51:37 AM 45.3490 48.1320 302° West 472 543 32,000  Level FlightAware ADS-B
Thu 08:52:17 AM 45.3910 48.0330 301° West 473 544 32,000  Level FlightAware ADS-B
Thu 08:53:07 AM 45.4460 47.9040 301° West 475 547 32,000  Level FlightAware ADS-B
Thu 08:53:37 AM 45.4820 47.8170 301° West 475 547 32,000  Level FlightAware ADS-B
Thu 08:54:32 AM 45.5440 47.6700 301° West 475 547 32,000  Level FlightAware ADS-B
Thu 08:55:07 AM 45.5440 47.6700 301° West 476 548 32,000  Level FlightAware ADS-B
Thu 08:55:52 AM 45.6300 47.4610 301° West 476 548 32,000 133 Level FlightAware ADS-B
Thu 08:56:37 AM 45.6860 47.3290 301° West 478 550 32,200 776 Climbing FlightAware ADS-B
Thu 08:57:17 AM 45.7320 47.2180 301° West 481 554 33,100 1,271 Climbing FlightAware ADS-B
Thu 08:58:02 AM 45.7820 47.0950 300° West 482 555 34,000 635 Climbing FlightAware ADS-B
Thu 08:58:42 AM 45.8280 46.9830 301° West 481 554 34,000  Level FlightAware ADS-B
Thu 08:59:22 AM 45.8710 46.8780 300° West 482 555 34,000  Level FlightAware ADS-B
Thu 08:59:57 AM 45.9110 46.7790 300° West 482 555 34,000  Level FlightAware ADS-B
Thu 09:01:32 AM 46.0170 46.5160 300° West 482 555 34,000  Level FlightAware ADS-B
Thu 09:02:12 AM 46.0420 46.4530 300° West 34,000  Level FlightAware ADS-B
Thu 09:03:42 AM 46.1580 46.1620 300° West 482 555 34,000  Level FlightAware ADS-B
Thu 09:04:32 AM 46.2130 46.0220 300° West 483 556 34,000  Level FlightAware ADS-B
Thu 09:05:22 AM 46.2710 45.8740 300° West 483 556 34,000  Level FlightAware ADS-B
Thu 09:06:12 AM 46.3170 45.7530 299° West 483 556 34,000  Level FlightAware ADS-B
Thu 09:06:52 AM 46.3660 45.6320 300° West 485 558 34,000  Level FlightAware ADS-B
Thu 09:07:37 AM 46.4150 45.5030 299° West 485 558 34,000  Level FlightAware ADS-B
Thu 09:08:07 AM 46.4450 45.4040 294° West 485 558 34,000  Level FlightAware ADS-B
Thu 09:08:52 AM 46.4840 45.2730 293° West 484 557 34,000  Level FlightAware ADS-B
Thu 09:09:42 AM 46.5240 45.1320 292° West 481 554 34,000  Level FlightAware ADS-B
Thu 09:10:22 AM 46.5630 44.9960 293° West 477 549 34,000  Level FlightAware ADS-B
Thu 09:11:07 AM 46.6010 44.8660 293° West 475 547 34,000  Level FlightAware ADS-B
Thu 09:11:47 AM 46.6360 44.7420 292° West 474 545 34,000  Level FlightAware ADS-B
Thu 09:12:27 AM 46.6690 44.6230 292° West 476 548 34,000  Level FlightAware ADS-B
Thu 09:13:12 AM 46.7040 44.5000 293° West 479 551 34,000  Level FlightAware ADS-B
Thu 09:13:52 AM 46.7370 44.3810 292° West 479 551 34,000  Level FlightAware ADS-B
Thu 09:14:37 AM 46.7710 44.2600 292° West 479 551 34,000  Level FlightAware ADS-B
Thu 09:15:17 AM 46.8060 44.1350 292° West 479 551 34,000  Level FlightAware ADS-B
Thu 09:16:12 AM 46.8560 43.9500 292° West 481 554 34,000  Level FlightAware ADS-B
Thu 09:16:52 AM 46.8890 43.8330 292° West 481 554 34,000  Level FlightAware ADS-B
Thu 09:17:37 AM 46.9260 43.6950 291° West 483 556 34,000  Level FlightAware ADS-B
Thu 09:18:32 AM 46.9690 43.5380 292° West 482 555 34,000  Level FlightAware ADS-B
Thu 09:19:17 AM 47.0050 43.4040 292° West 486 559 34,000  Level FlightAware ADS-B
Thu 09:19:57 AM 47.0380 43.2790 291° West 489 563 34,000  Level FlightAware ADS-B
Thu 09:20:37 AM 47.0710 43.1550 291° West 490 564 34,000  Level FlightAware ADS-B
Thu 09:21:22 AM 47.1080 43.0160 291° West 492 566 34,000  Level FlightAware ADS-B
Thu 09:22:02 AM 47.1400 42.8930 291° West 494 568 34,000  Level FlightAware ADS-B
Thu 09:22:47 AM 47.1770 42.7520 291° West 494 568 34,000  Level FlightAware ADS-B
Thu 09:23:27 AM 47.2090 42.6260 291° West 494 568 34,000  Level FlightAware ADS-B
Thu 09:24:07 AM 47.2420 42.5010 291° West 495 570 34,000  Level FlightAware ADS-B
Thu 09:24:52 AM 47.2790 42.3550 291° West 494 568 34,000  Level FlightAware ADS-B
Thu 09:25:32 AM 47.3110 42.2310 291° West 493 567 34,000  Level FlightAware ADS-B
Thu 09:26:42 AM 47.3610 42.0350 291° West 491 565 34,000  Level FlightAware ADS-B
Thu 09:27:17 AM 47.3880 41.9270 290° West 489 563 34,000  Level FlightAware ADS-B
Thu 09:28:02 AM 47.4290 41.7630 290° West 488 562 34,000  Level FlightAware ADS-B
Thu 09:28:42 AM 47.4560 41.6450 289° West 484 557 34,000  Level FlightAware ADS-B
Thu 09:29:22 AM 47.4570 41.5060 271° West 485 558 34,000  Level FlightAware ADS-B
Thu 09:30:12 AM 47.4390 41.3440 261° West 485 558 34,000  Level FlightAware ADS-B
Thu 09:30:47 AM 47.4280 41.2360 261° West 483 556 34,000  Level FlightAware ADS-B
Thu 09:31:32 AM 47.4120 41.0890 261° West 482 555 34,000  Level FlightAware ADS-B
Thu 09:32:17 AM 47.3960 40.9340 261° West 481 554 34,000  Level FlightAware ADS-B
Thu 09:32:57 AM 47.3800 40.8060 260° West 482 555 34,000  Level FlightAware ADS-B
Thu 09:33:37 AM 47.3630 40.6790 259° West 482 555 34,000  Level FlightAware ADS-B
Thu 09:34:22 AM 47.3440 40.5340 259° West 484 557 34,000  Level FlightAware ADS-B
Thu 09:35:07 AM 47.3250 40.3870 259° West 485 558 34,000  Level FlightAware ADS-B
Thu 09:35:42 AM 47.3110 40.2840 259° West 486 559 34,000  Level FlightAware ADS-B
Thu 09:36:27 AM 47.2930 40.1320 260° West 488 562 34,000  Level FlightAware ADS-B
Thu 09:37:02 AM 47.2780 40.0160 259° West 487 560 34,000  Level FlightAware ADS-B
Thu 09:37:47 AM 47.2640 39.9000 260° West 484 557 34,000  Level FlightAware ADS-B
Thu 09:38:32 AM 47.2660 39.7130 271° West 481 554 34,000  Level FlightAware ADS-B
Thu 09:39:12 AM 47.2740 39.5890 275° West 481 554 34,000  Level FlightAware ADS-B
Thu 09:39:52 AM 47.2880 39.4670 280° West 480 552 34,000  Level FlightAware ADS-B
Thu 09:40:42 AM 47.3210 39.3090 287° West 478 550 34,000  Level FlightAware ADS-B
Thu 09:41:22 AM 47.3820 39.1840 306° West 478 550 34,000  Level FlightAware ADS-B
Thu 09:42:02 AM 47.4050 39.0690 287° West 478 550 34,000  Level FlightAware ADS-B
Thu 09:43:02 AM 47.4450 38.8710 287° West 478 550 34,000  Level FlightAware ADS-B
Thu 09:43:42 AM 47.4690 38.7510 287° West 481 554 34,000  Level FlightAware ADS-B
Thu 09:44:32 AM 47.5000 38.5920 286° West 481 554 34,000  Level FlightAware ADS-B
Thu 09:45:12 AM 47.5240 38.4720 287° West 481 554 34,000  Level FlightAware ADS-B
Thu 09:46:12 AM 47.5640 38.2720 287° West 481 554 34,000  Level FlightAware ADS-B
Thu 09:46:57 AM 47.5870 38.1520 286° West 481 554 34,000 503 Level FlightAware ADS-B
Thu 09:48:47 AM 47.6470 37.8080 285° West 489 563 35,300 760 Climbing FlightAware ADS-B
Thu 09:49:27 AM 47.6670 37.6930 285° West 490 564 35,900 420 Climbing FlightAware ADS-B
Thu 09:50:27 AM 47.6680 37.4550 270° West 497 572 36,000 57 Climbing FlightAware ADS-B
Thu 09:51:12 AM 47.6370 37.3500 246° West 494 568 36,000  Level FlightAware ADS-B
Thu 09:51:52 AM 47.5980 37.2260 245° Southwest 489 563 36,000  Level FlightAware ADS-B
Thu 09:52:47 AM 47.5450 37.0610 245° Southwest 487 560 36,000  Level FlightAware ADS-B
Thu 09:53:32 AM 47.5000 36.9220 244° Southwest 489 563 36,000  Level FlightAware ADS-B
Thu 09:54:12 AM 47.4610 36.7970 245° Southwest 495 570 36,000 80 Level FlightAware ADS-B
Thu 09:54:47 AM 47.4360 36.6920 251° West 496 571 36,100  Climbing FlightAware ADS-B
Thu 09:55:32 AM 47.4400 36.5290 272° West 496 571 36,000 -67 Descending FlightAware ADS-B
Thu 09:56:17 AM 47.4790 36.3590 289° West 494 568 36,000  Level FlightAware ADS-B
Thu 09:57:02 AM 47.5130 36.2190 290° West 493 567 36,000  Level FlightAware ADS-B
Thu 09:57:42 AM 47.5430 36.0890 289° West 494 568 36,000  Level FlightAware ADS-B
Thu 09:58:22 AM 47.5730 35.9610 289° West 498 573 36,000  Level FlightAware ADS-B
Thu 09:59:07 AM 47.6060 35.8190 289° West 501 577 36,000  Level FlightAware ADS-B
Thu 09:59:47 AM 47.6370 35.6860 289° West 504 580 36,000  Level FlightAware ADS-B
Thu 10:00:32 AM 47.6700 35.5400 289° West 506 582 36,000  Level FlightAware ADS-B
Thu 10:01:12 AM 47.7010 35.4060 289° West 506 582 36,000  Level FlightAware ADS-B
Thu 10:01:52 AM 47.7300 35.2760 288° West 505 581 36,000  Level FlightAware ADS-B
Thu 10:02:37 AM 47.7600 35.1410 288° West 504 580 36,000  Level FlightAware ADS-B
Thu 10:03:17 AM 47.7860 35.0280 289° West 504 580 36,000  Level FlightAware ADS-B
Thu 10:03:52 AM 47.8100 34.9200 288° West 504 580 36,000  Level FlightAware ADS-B
Thu 10:04:37 AM 47.8430 34.7710 288° West 505 581 36,000  Level FlightAware ADS-B
Thu 10:05:22 AM 47.8750 34.6250 288° West 505 581 36,000  Level FlightAware ADS-B
Thu 10:06:02 AM 47.9050 34.4850 288° West 505 581 36,000  Level FlightAware ADS-B
Thu 10:06:42 AM 47.9350 34.3500 288° West 503 579 36,000  Level FlightAware ADS-B
Thu 10:07:32 AM 47.9700 34.1850 288° West 501 577 36,000  Level FlightAware ADS-B
Thu 10:08:12 AM 47.9970 34.0570 288° West 501 577 36,000  Level FlightAware ADS-B
Thu 10:08:57 AM 48.0320 33.8900 287° West 501 577 36,000  Level FlightAware ADS-B
Thu 10:09:37 AM 48.0600 33.7600 288° West 503 579 36,000  Level FlightAware ADS-B
Thu 10:10:17 AM 48.0870 33.6300 287° West 504 580 36,000  Level FlightAware ADS-B
Thu 10:10:57 AM 48.1150 33.4930 287° West 505 581 36,000  Level FlightAware ADS-B
Thu 10:11:47 AM 48.1520 33.3160 287° West 503 579 36,000  Level FlightAware ADS-B
Thu 10:12:27 AM 48.1790 33.1810 287° West 503 579 36,000  Level FlightAware ADS-B
Thu 10:13:07 AM 48.2060 33.0490 287° West 503 579 36,000  Level FlightAware ADS-B
Thu 10:13:52 AM 48.2370 32.8960 287° West 503 579 36,000  Level FlightAware ADS-B
Thu 10:14:32 AM 48.2620 32.7690 287° West 504 580 36,000  Level FlightAware ADS-B
Thu 10:15:12 AM 48.2870 32.6280 285° West 501 577 36,000  Level FlightAware ADS-B
Thu 10:15:57 AM 48.2930 32.4840 274° West 498 573 36,000  Level FlightAware ADS-B
Thu 10:16:37 AM 48.2990 32.3420 274° West 498 573 36,000  Level FlightAware ADS-B
Thu 10:17:17 AM 48.3100 32.2010 277° West 497 572 36,000  Level FlightAware ADS-B
Thu 10:18:02 AM 48.3200 32.0440 276° West 499 574 36,000  Level FlightAware ADS-B
Thu 10:18:42 AM 48.3300 31.9120 277° West 500 575 36,000  Level FlightAware ADS-B
Thu 10:19:27 AM 48.3410 31.7500 276° West 503 579 36,000  Level FlightAware ADS-B
Thu 10:20:07 AM 48.3510 31.6110 276° West 503 579 36,000  Level FlightAware ADS-B
Thu 10:20:47 AM 48.3600 31.4740 276° West 502 578 36,000  Level FlightAware ADS-B
Thu 10:21:32 AM 48.3710 31.3170 276° West 503 579 36,000  Level FlightAware ADS-B
Thu 10:22:12 AM 48.3920 31.1840 283° West 502 578 36,000  Level FlightAware ADS-B
Thu 10:22:57 AM 48.4280 31.0400 291° West 502 578 36,000  Level FlightAware ADS-B
Thu 10:23:37 AM 48.4600 30.9080 290° West 503 579 36,000  Level FlightAware ADS-B
Thu 10:24:17 AM 48.4910 30.7760 290° West 503 579 36,000  Level FlightAware ADS-B
Thu 10:25:02 AM 48.5270 30.6260 290° West 504 580 36,000  Level FlightAware ADS-B
Thu 10:25:42 AM 48.5590 30.4940 290° West 504 580 36,000  Level FlightAware ADS-B
Thu 10:26:22 AM 48.5900 30.3600 289° West 502 578 36,000  Level FlightAware ADS-B
Thu 10:27:07 AM 48.6250 30.2140 290° West 502 578 36,000  Level FlightAware ADS-B
Thu 10:27:47 AM 48.6560 30.0800 289° West 504 580 36,000  Level FlightAware ADS-B
Thu 10:28:32 AM 48.6910 29.9310 290° West 506 582 36,000  Level FlightAware ADS-B
Thu 10:29:12 AM 48.7220 29.7960 289° West 507 583 36,000  Level FlightAware ADS-B
Thu 10:29:52 AM 48.7530 29.6610 289° West 507 583 36,000  Level FlightAware ADS-B
Thu 10:30:37 AM 48.7860 29.5140 289° West 506 582 36,000  Level FlightAware ADS-B
Thu 10:31:17 AM 48.8170 29.3810 290° West 505 581 36,000  Level FlightAware ADS-B
Thu 10:32:02 AM 48.8510 29.2280 289° West 505 581 36,000  Level FlightAware ADS-B
Thu 10:32:47 AM 48.8840 29.0790 289° West 504 580 36,000  Level FlightAware ADS-B
Thu 10:33:27 AM 48.9140 28.9440 289° West 505 581 36,000  Level FlightAware ADS-B
Thu 10:34:07 AM 48.9430 28.8110 288° West 504 580 36,000  Level FlightAware ADS-B
Thu 10:34:52 AM 48.9770 28.6550 288° West 504 580 36,000  Level FlightAware ADS-B
Thu 10:35:32 AM 49.0050 28.5260 288° West 505 581 36,000  Level FlightAware ADS-B
Thu 10:36:17 AM 49.0390 28.3710 289° West 504 580 36,000  Level FlightAware ADS-B
Thu 10:36:57 AM 49.0680 28.2360 288° West 502 578 36,000  Level FlightAware ADS-B
Thu 10:37:37 AM 49.0960 28.1010 288° West 503 579 36,000  Level FlightAware ADS-B
Thu 10:38:22 AM 49.1280 27.9520 288° West 502 578 36,000  Level FlightAware ADS-B
Thu 10:39:02 AM 49.1560 27.8170 288° West 503 579 36,000  Level FlightAware ADS-B
Thu 10:39:47 AM 49.1830 27.6640 285° West 502 578 36,000  Level FlightAware ADS-B
Thu 10:40:22 AM 49.2030 27.5450 284° West 502 578 36,000  Level FlightAware ADS-B
Thu 10:41:07 AM 49.2300 27.3870 285° West 499 574 36,000  Level FlightAware ADS-B
Thu 10:41:52 AM 49.2560 27.2370 285° West 495 570 36,000  Level FlightAware ADS-B
Thu 10:42:32 AM 49.2790 27.1060 285° West 490 564 36,000  Level FlightAware ADS-B
Thu 10:43:12 AM 49.3020 26.9700 285° West 487 560 36,000  Level FlightAware ADS-B
Thu 10:43:57 AM 49.3270 26.8180 284° West 485 558 36,000  Level FlightAware ADS-B
Thu 10:44:37 AM 49.3500 26.6860 285° West 483 556 36,000  Level FlightAware ADS-B
Thu 10:45:22 AM 49.3740 26.5400 284° West 481 554 36,000  Level FlightAware ADS-B
Thu 10:46:02 AM 49.3960 26.4080 284° West 480 552 36,000  Level FlightAware ADS-B
Thu 10:46:42 AM 49.4170 26.2760 284° West 481 554 36,000  Level FlightAware ADS-B
Thu 10:47:27 AM 49.4420 26.1240 284° West 480 552 36,000  Level FlightAware ADS-B
Thu 10:48:02 AM 49.4580 26.0200 283° West 482 555 36,000  Level FlightAware ADS-B
Thu 10:48:47 AM 49.4840 25.8590 284° West 483 556 36,000  Level FlightAware ADS-B
Thu 10:49:32 AM 49.5070 25.7100 283° West 483 556 36,000  Level FlightAware ADS-B
Thu 10:50:12 AM 49.5250 25.5970 284° West 484 557 36,000  Level FlightAware ADS-B
Thu 10:50:57 AM 49.5500 25.4360 284° West 482 555 36,000  Level FlightAware ADS-B
Thu 10:51:32 AM 49.5670 25.3240 283° West 482 555 36,000  Level FlightAware ADS-B
Thu 10:52:17 AM 49.5890 25.1800 283° West 482 555 36,000  Level FlightAware ADS-B
Thu 10:53:02 AM 49.6130 25.0220 283° West 482 555 36,000  Level FlightAware ADS-B
Thu 10:53:42 AM 49.6320 24.8970 283° West 482 555 36,000  Level FlightAware ADS-B
Thu 10:54:17 AM 49.6470 24.7890 282° West 483 556 36,000  Level FlightAware ADS-B
Thu 10:55:17 AM 49.6790 24.5720 283° West 481 554 36,000  Level FlightAware ADS-B
Thu 10:56:17 AM 49.7080 24.3770 283° West 480 552 36,000  Level FlightAware ADS-B
Thu 10:56:57 AM 49.7260 24.2450 282° West 479 551 36,000  Level FlightAware ADS-B
Thu 10:57:42 AM 49.7480 24.0940 283° West 479 551 36,000  Level FlightAware ADS-B
Thu 10:58:22 AM 49.7670 23.9570 282° West 477 549 36,000  Level FlightAware ADS-B
Thu 10:59:02 AM 49.7860 23.8180 282° West 477 549 36,000  Level FlightAware ADS-B
Thu 10:59:42 AM 49.8050 23.6850 283° West 476 548 36,000  Level FlightAware ADS-B
Thu 11:00:27 AM 49.8230 23.5470 281° West 475 547 36,000  Level FlightAware ADS-B
Thu 11:01:12 AM 49.8440 23.3920 282° West 476 548 36,000  Level FlightAware ADS-B
Thu 11:02:07 AM 49.8680 23.2120 282° West 471 542 36,000  Level FlightAware ADS-B
Thu 11:02:47 AM 49.8840 23.0800 281° West 469 540 36,000  Level FlightAware ADS-B
Thu 11:03:32 AM 49.8930 22.9240 275° West 466 536 36,000  Level FlightAware ADS-B
Thu 11:04:17 AM 49.8970 22.7750 272° West 461 531 36,000  Level FlightAware ADS-B
Thu 11:04:57 AM 49.9010 22.6310 273° West 459 528 36,000  Level FlightAware ADS-B
Thu 11:05:37 AM 49.9040 22.5060 272° West 457 526 36,000  Level FlightAware ADS-B
Thu 11:06:22 AM 49.9070 22.3530 272° West 455 524 36,000  Level FlightAware ADS-B
Thu 11:07:02 AM 49.9110 22.2210 273° West 454 522 36,000  Level FlightAware ADS-B
Thu 11:07:47 AM 49.9140 22.0800 272° West 454 522 36,000  Level FlightAware ADS-B
Thu 11:08:27 AM 49.9170 21.9490 272° West 454 522 36,000  Level FlightAware ADS-B
Thu 11:09:07 AM 49.9190 21.8290 272° West 455 524 36,000  Level FlightAware ADS-B
Thu 11:09:52 AM 49.9220 21.6700 272° West 454 522 36,000  Level FlightAware ADS-B
Thu 11:10:32 AM 49.9240 21.5430 271° West 454 522 36,000  Level FlightAware ADS-B
Thu 11:11:17 AM 49.9270 21.3990 272° West 455 524 36,000  Level FlightAware ADS-B
Thu 11:11:52 AM 49.9290 21.2820 272° West 456 525 36,000  Level FlightAware ADS-B
Thu 11:12:37 AM 49.9310 21.1360 271° West 456 525 36,000  Level FlightAware ADS-B
Thu 11:13:22 AM 49.9330 20.9850 271° West 457 526 36,000  Level FlightAware ADS-B
Thu 11:13:57 AM 49.9340 20.8750 271° West 457 526 36,000  Level FlightAware ADS-B
Thu 11:14:47 AM 49.9350 20.7110 271° West 456 525 36,000  Level FlightAware ADS-B
Thu 11:15:27 AM 49.9360 20.5790 271° West 455 524 36,000  Level FlightAware ADS-B
Thu 11:16:07 AM 49.9380 20.4500 271° West 455 524 36,000  Level FlightAware ADS-B
Thu 11:16:52 AM 49.9390 20.3070 271° West 455 524 36,000  Level FlightAware ADS-B
Thu 11:17:32 AM 49.9390 20.1780 270° West 455 524 36,000  Level FlightAware ADS-B
Thu 11:18:17 AM 49.9400 20.0250 271° West 455 524 36,000  Level FlightAware ADS-B
Thu 11:18:57 AM 49.9400 19.9030 270° West 454 522 36,000  Level FlightAware ADS-B
Thu 11:19:37 AM 49.9410 19.7670 271° West 453 521 36,000  Level FlightAware ADS-B
Thu 11:20:22 AM 49.9410 19.6170 270° West 453 521 36,000  Level FlightAware ADS-B
Thu 11:21:02 AM 49.9410 19.4960 270° West 452 520 36,000  Level FlightAware ADS-B
Thu 11:21:42 AM 49.9410 19.3590 270° West 451 519 36,000  Level FlightAware ADS-B
Thu 11:22:27 AM 49.9410 19.2190 270° West 451 519 36,000  Level FlightAware ADS-B
Thu 11:23:07 AM 49.9410 19.0890 270° West 452 520 36,000  Level FlightAware ADS-B
Thu 11:23:52 AM 49.9400 18.9390 269° West 452 520 36,000  Level FlightAware ADS-B
Thu 11:24:32 AM 49.9390 18.8110 269° West 453 521 36,000  Level FlightAware ADS-B
Thu 11:25:12 AM 49.9380 18.6810 269° West 453 521 36,000  Level FlightAware ADS-B
Thu 11:25:57 AM 49.9370 18.5380 269° West 454 522 36,000  Level FlightAware ADS-B
Thu 11:26:37 AM 49.9350 18.4080 269° West 455 524 36,000  Level FlightAware ADS-B
Thu 11:27:22 AM 49.9340 18.2590 269° West 456 525 36,000  Level FlightAware ADS-B
Thu 11:28:02 AM 49.9320 18.1280 269° West 457 526 36,000  Level FlightAware ADS-B
Thu 11:28:42 AM 49.9340 17.9970 271° West 461 531 36,000  Level FlightAware ADS-B
Thu 11:29:27 AM 49.9430 17.8550 276° West 462 532 36,000  Level FlightAware ADS-B
Thu 11:30:07 AM 49.9510 17.7190 275° West 463 533 36,000  Level FlightAware ADS-B
Thu 11:30:47 AM 49.9580 17.5850 275° West 464 534 36,000  Level FlightAware ADS-B
Thu 11:31:32 AM 49.9660 17.4400 275° West 465 535 36,000  Level FlightAware ADS-B
Thu 11:32:12 AM 49.9740 17.3070 275° West 466 536 36,000  Level FlightAware ADS-B
Thu 11:32:57 AM 49.9820 17.1540 275° West 464 534 36,000  Level FlightAware ADS-B
Thu 11:33:37 AM 49.9880 17.0290 274° West 463 533 36,000  Level FlightAware ADS-B
Thu 11:34:22 AM 49.9960 16.8710 275° West 463 533 36,000  Level FlightAware ADS-B
Thu 11:35:02 AM 50.0020 16.7450 274° West 461 531 36,000  Level FlightAware ADS-B
Thu 11:35:42 AM 50.0090 16.6130 275° West 461 531 36,000  Level FlightAware ADS-B
Thu 11:36:27 AM 50.0160 16.4650 274° West 462 532 36,000  Level FlightAware ADS-B
Thu 11:37:07 AM 50.0220 16.3340 274° West 464 534 36,000  Level FlightAware ADS-B
Thu 11:37:47 AM 50.0280 16.1950 274° West 466 536 36,000  Level FlightAware ADS-B
Thu 11:38:32 AM 50.0340 16.0570 274° West 466 536 36,000  Level FlightAware ADS-B
Thu 11:39:07 AM 50.0390 15.9300 274° West 468 539 36,000  Level FlightAware ADS-B
Thu 11:39:57 AM 50.0460 15.7640 274° West 469 540 36,000  Level FlightAware ADS-B
Thu 11:40:37 AM 50.0510 15.6260 273° West 470 541 36,000  Level FlightAware ADS-B
Thu 11:41:17 AM 50.0560 15.4930 273° West 470 541 36,000  Level FlightAware ADS-B
Thu 11:42:02 AM 50.0620 15.3360 273° West 471 542 36,000  Level FlightAware ADS-B
Thu 11:42:42 AM 50.0670 15.2080 274° West 470 541 36,000  Level FlightAware ADS-B
Thu 11:43:22 AM 50.0720 15.0680 273° West 468 539 36,000  Level FlightAware ADS-B
Thu 11:44:02 AM 50.0760 14.9320 273° West 464 534 36,000  Level FlightAware ADS-B
Thu 11:44:47 AM 50.0810 14.7890 273° West 462 532 36,000  Level FlightAware ADS-B
Thu 11:45:32 AM 50.0860 14.6340 273° West 462 532 36,000  Level FlightAware ADS-B
Thu 11:46:12 AM 50.0900 14.5010 273° West 464 534 36,000  Level FlightAware ADS-B
Thu 11:46:52 AM 50.0940 14.3700 273° West 466 536 36,000  Level FlightAware ADS-B
Thu 11:47:37 AM 50.0970 14.2210 272° West 468 539 36,000  Level FlightAware ADS-B
Thu 11:49:02 AM 50.0970 13.9480 270° West 468 539 36,000  Level FlightAware ADS-B
Thu 11:49:47 AM 50.0970 13.7870 270° West 468 539 36,000  Level FlightAware ADS-B
Thu 11:50:17 AM 50.0970 13.6830 270° West 468 539 36,000  Level FlightAware ADS-B
Thu 11:51:07 AM 50.0940 13.5170 268° West 469 540 36,000 -189 Level FlightAware ADS-B
Thu 11:51:52 AM 50.0820 13.3650 263° West 461 531 35,700 -706 Descending FlightAware ADS-B
Thu 11:52:32 AM 50.0640 13.2430 257° West 464 534 35,000 -675 Descending FlightAware ADS-B
Thu 11:53:12 AM 50.0450 13.1120 257° West 468 539 34,800 -988 Descending FlightAware ADS-B
Thu 11:53:57 AM 50.0240 12.9620 258° West 462 532 33,600 -1,667 Descending FlightAware ADS-B
Thu 11:54:42 AM 50.0030 12.8150 258° West 454 522 32,300 -1,624 Descending FlightAware ADS-B
Thu 11:55:22 AM 49.9830 12.6840 257° West 465 535 31,300 -1,500 Descending FlightAware ADS-B
Thu 11:56:02 AM 49.9650 12.5620 257° West 462 532 30,300 -918 Descending FlightAware ADS-B
Thu 11:56:47 AM 49.9440 12.4160 257° West 458 527 30,000 -212 Descending FlightAware ADS-B
Thu 11:57:27 AM 49.9270 12.3000 257° West 459 528 30,000  Level FlightAware ADS-B
Thu 11:58:12 AM 49.9240 12.1400 268° West 484 557 30,000  Level FlightAware ADS-B
Thu 11:58:52 AM 49.9600 12.0020 292° West 496 571 30,000  Level FlightAware ADS-B
Thu 11:59:32 AM 49.9980 11.8710 294° West 494 568 30,000  Level FlightAware ADS-B
Thu 12:00:17 PM 50.0330 11.7230 290° West 491 565 30,000  Level FlightAware ADS-B
Thu 12:00:57 PM 50.0620 11.5920 289° West 491 565 30,000 -776 Level FlightAware ADS-B
Thu 12:01:42 PM 50.0940 11.4420 288° West 497 572 28,900 -1,765 Descending FlightAware ADS-B
Thu 12:02:22 PM 50.1230 11.3060 288° West 483 556 27,500 -2,100 Descending FlightAware ADS-B
Thu 12:03:02 PM 50.1500 11.1790 288° West 471 542 26,100 -2,100 Descending FlightAware ADS-B
Thu 12:03:42 PM 50.1780 11.0490 289° West 458 527 24,700 -2,118 Descending FlightAware ADS-B
Thu 12:04:27 PM 50.2080 10.9050 288° West 446 513 23,100 -2,118 Descending FlightAware ADS-B
Thu 12:05:07 PM 50.2320 10.7860 288° West 436 502 21,700 -1,976 Descending FlightAware ADS-B
Thu 12:05:52 PM 50.2570 10.6690 289° West 429 494 20,300 -1,200 Descending FlightAware ADS-B
Thu 12:06:32 PM 50.2830 10.5420 288° West 411 473 20,000 -212 Descending FlightAware ADS-B
Thu 12:07:17 PM 50.3100 10.4090 288° West 411 473 20,000  Level FlightAware ADS-B
Thu 12:07:57 PM 50.3240 10.2960 281° West 409 471 20,000 -75 Level FlightAware ADS-B
Thu 12:08:37 PM 50.3340 10.1770 278° West 407 468 19,900 -988 Descending FlightAware ADS-B
Thu 12:09:22 PM 50.3440 10.0500 277° West 395 455 18,600 -1,976 Descending FlightAware ADS-B
Thu 12:10:02 PM 50.3520 9.9400 277° West 394 453 17,100 -2,560 Descending FlightAware ADS-B
Thu 12:10:37 PM 50.3600 9.8350 277° West 403 464 15,400 -2,400 Descending FlightAware ADS-B
Thu 12:11:12 PM 50.3660 9.7390 276° West 386 444 14,300 -2,182 Descending FlightAware ADS-B
Thu 12:11:32 PM 50.3700 9.6840 277° West 379 436 13,400 -2,880 Descending FlightAware ADS-B
Thu 12:12:02 PM 50.3600 9.6050 259° West 369 425 11,900 -2,400 Descending FlightAware ADS-B
Thu 12:12:32 PM 50.3390 9.5330 245° Southwest 345 397 11,000 -2,100 Descending FlightAware ADS-B
Thu 12:13:02 PM 50.3180 9.4690 243° Southwest 343 395 9,800 -2,291 Descending FlightAware ADS-B
Thu 12:13:27 PM 50.2970 9.4110 240° Southwest 340 391 8,900 -1,745 Descending FlightAware ADS-B
Thu 12:13:57 PM 50.2750 9.3470 242° Southwest 333 383 8,200 -1,600 Descending FlightAware ADS-B
Thu 12:14:12 PM 50.2650 9.3170 242° Southwest 328 377 7,700 -2,250 Descending FlightAware ADS-B
Thu 12:14:37 PM 50.2470 9.2670 241° Southwest 324 373 6,700 -1,964 Descending FlightAware ADS-B
Thu 12:15:07 PM 50.2260 9.2040 242° Southwest 307 353 5,900 -1,333 Descending FlightAware ADS-B
Thu 12:15:22 PM 50.2160 9.1770 240° Southwest 294 338 5,700 -600 Descending FlightAware ADS-B
Thu 12:15:47 PM 50.2000 9.1310 241° Southwest 272 313 5,500 -436 Descending FlightAware ADS-B
Thu 12:16:17 PM 50.1830 9.0800 243° Southwest 270 311 5,300 -600 Descending FlightAware ADS-B
Thu 12:16:47 PM 50.1640 9.0280 240° Southwest 268 308 4,900 -764 Descending FlightAware ADS-B
Thu 12:17:12 PM 50.1500 8.9880 241° Southwest 268 308 4,600 -436 Descending FlightAware ADS-B
Thu 12:17:42 PM 50.1330 8.9380 242° Southwest 254 292 4,500 -109 Descending FlightAware ADS-B
Thu 12:18:07 PM 50.1190 8.8980 241° Southwest 236 272 4,500  Level FlightAware ADS-B
Thu 12:18:37 PM 50.1040 8.8560 241° Southwest 212 244 4,500 -500 Level FlightAware ADS-B
Thu 12:19:07 PM 50.0940 8.8130 250° West 203 234 4,000 -1,091 Descending FlightAware ADS-B
Thu 12:19:32 PM 50.0860 8.7810 249° West 191 220 3,500 -1,091 Descending FlightAware ADS-B
Thu 12:20:02 PM 50.0780 8.7440 251° West 173 199 3,000 -982 Descending FlightAware ADS-B
Thu 12:20:27 PM 50.0710 8.7150 249° West 167 192 2,600 -900 Descending FlightAware ADS-B
Thu 12:20:42 PM 50.0670 8.6990 249° West 167 192 2,400 -800 Descending FlightAware ADS-B
Thu 12:21:12 PM 50.0590 8.6650 250° West 166 191 2,000 -873 Descending FlightAware ADS-B
Thu 12:21:37 PM 50.0520 8.6360 249° West 167 192 1,600 -982 Descending FlightAware ADS-B
Thu 12:22:07 PM 50.0440 8.6030 249° West 163 188 1,100 -1,000 Descending FlightAware ADS-B

Login

Don't have an account? Register now (free) for customized features, flight alerts, and more!